<?xml version="1.0" encoding="UTF-8" standalone="no" ?>
<gpx xmlns="http://www.topografix.com/GPX/1/1" xmlns:xsi="http://www.w3.org/2001/XMLSchema-instance" xsi:schemaLocation="http://www.topografix.com/GPX/1/1 http://www.topografix.com/GPX/1/1/gpx.xsd" version="1.1" creator="VisuGPX - https://www.visugpx.com">
  <metadata>
    <name>ASLPM marche VIX le 21 sept 2015</name>
    <desc><![CDATA[ASLPM marche à VIX le 21 septembre 2015
]]></desc>
  </metadata>
  <trk>
    <name><![CDATA[Marche Vix]]></name>
    <trkseg>
      <trkpt lat="46.36229" lon="-0.8581">
        <ele>9</ele>
        <time>2015-09-21T07:12:13.000Z</time>
      </trkpt>
      <trkpt lat="46.36226" lon="-0.85805">
        <ele>9</ele>
        <time>2015-09-21T07:12:18.000Z</time>
      </trkpt>
      <trkpt lat="46.36225" lon="-0.85804">
        <ele>9</ele>
        <time>2015-09-21T07:12:19.000Z</time>
      </trkpt>
      <trkpt lat="46.36219" lon="-0.85801">
        <ele>8.8000001907349</ele>
        <time>2015-09-21T07:12:26.000Z</time>
      </trkpt>
      <trkpt lat="46.36218" lon="-0.85799">
        <ele>8.8000001907349</ele>
        <time>2015-09-21T07:12:27.000Z</time>
      </trkpt>
      <trkpt lat="46.36211" lon="-0.85784">
        <ele>8.3999996185303</ele>
        <time>2015-09-21T07:12:38.000Z</time>
      </trkpt>
      <trkpt lat="46.36211" lon="-0.85782">
        <ele>8.3999996185303</ele>
        <time>2015-09-21T07:12:40.000Z</time>
      </trkpt>
      <trkpt lat="46.3621" lon="-0.85781">
        <ele>8.3999996185303</ele>
        <time>2015-09-21T07:12:51.000Z</time>
      </trkpt>
      <trkpt lat="46.36207" lon="-0.85783">
        <ele>8.3999996185303</ele>
        <time>2015-09-21T07:13:01.000Z</time>
      </trkpt>
      <trkpt lat="46.36201" lon="-0.85788">
        <ele>8.3999996185303</ele>
        <time>2015-09-21T07:13:09.000Z</time>
      </trkpt>
      <trkpt lat="46.36196" lon="-0.85793">
        <ele>8.3999996185303</ele>
        <time>2015-09-21T07:13:14.000Z</time>
      </trkpt>
      <trkpt lat="46.36188" lon="-0.85801">
        <ele>8.3999996185303</ele>
        <time>2015-09-21T07:13:23.000Z</time>
      </trkpt>
      <trkpt lat="46.3618" lon="-0.85811">
        <ele>8.3999996185303</ele>
        <time>2015-09-21T07:13:32.000Z</time>
      </trkpt>
      <trkpt lat="46.3617" lon="-0.8582">
        <ele>8.1999998092651</ele>
        <time>2015-09-21T07:13:42.000Z</time>
      </trkpt>
      <trkpt lat="46.3617" lon="-0.8582">
        <ele>8.1999998092651</ele>
        <time>2015-09-21T07:13:43.000Z</time>
      </trkpt>
      <trkpt lat="46.36166" lon="-0.85827">
        <ele>8.1999998092651</ele>
        <time>2015-09-21T07:13:49.000Z</time>
      </trkpt>
      <trkpt lat="46.36154" lon="-0.85837">
        <ele>8</ele>
        <time>2015-09-21T07:14:00.000Z</time>
      </trkpt>
      <trkpt lat="46.36146" lon="-0.85833">
        <ele>8</ele>
        <time>2015-09-21T07:14:08.000Z</time>
      </trkpt>
      <trkpt lat="46.3614" lon="-0.85825">
        <ele>8</ele>
        <time>2015-09-21T07:14:15.000Z</time>
      </trkpt>
      <trkpt lat="46.36131" lon="-0.85816">
        <ele>8</ele>
        <time>2015-09-21T07:14:24.000Z</time>
      </trkpt>
      <trkpt lat="46.36118" lon="-0.85805">
        <ele>7.5999999046326</ele>
        <time>2015-09-21T07:14:35.000Z</time>
      </trkpt>
      <trkpt lat="46.36107" lon="-0.85795">
        <ele>7.5999999046326</ele>
        <time>2015-09-21T07:14:45.000Z</time>
      </trkpt>
      <trkpt lat="46.36097" lon="-0.85784">
        <ele>7.4000000953674</ele>
        <time>2015-09-21T07:14:55.000Z</time>
      </trkpt>
      <trkpt lat="46.36085" lon="-0.85768">
        <ele>7.4000000953674</ele>
        <time>2015-09-21T07:15:08.000Z</time>
      </trkpt>
      <trkpt lat="46.36077" lon="-0.85757">
        <ele>7.5999999046326</ele>
        <time>2015-09-21T07:15:17.000Z</time>
      </trkpt>
      <trkpt lat="46.36071" lon="-0.85745">
        <ele>7.8000001907349</ele>
        <time>2015-09-21T07:15:25.000Z</time>
      </trkpt>
      <trkpt lat="46.36062" lon="-0.85725">
        <ele>8</ele>
        <time>2015-09-21T07:15:37.000Z</time>
      </trkpt>
      <trkpt lat="46.36056" lon="-0.85711">
        <ele>7.8000001907349</ele>
        <time>2015-09-21T07:15:45.000Z</time>
      </trkpt>
      <trkpt lat="46.36047" lon="-0.8568">
        <ele>7.1999998092651</ele>
        <time>2015-09-21T07:16:02.000Z</time>
      </trkpt>
      <trkpt lat="46.36042" lon="-0.85667">
        <ele>7</ele>
        <time>2015-09-21T07:16:09.000Z</time>
      </trkpt>
      <trkpt lat="46.36033" lon="-0.85645">
        <ele>7</ele>
        <time>2015-09-21T07:16:21.000Z</time>
      </trkpt>
      <trkpt lat="46.36026" lon="-0.8563">
        <ele>7.1999998092651</ele>
        <time>2015-09-21T07:16:30.000Z</time>
      </trkpt>
      <trkpt lat="46.36017" lon="-0.85614">
        <ele>7.4000000953674</ele>
        <time>2015-09-21T07:16:40.000Z</time>
      </trkpt>
      <trkpt lat="46.36007" lon="-0.856">
        <ele>7.1999998092651</ele>
        <time>2015-09-21T07:16:50.000Z</time>
      </trkpt>
      <trkpt lat="46.36" lon="-0.85589">
        <ele>6.8000001907349</ele>
        <time>2015-09-21T07:16:59.000Z</time>
      </trkpt>
      <trkpt lat="46.35994" lon="-0.8558">
        <ele>6.5999999046326</ele>
        <time>2015-09-21T07:17:06.000Z</time>
      </trkpt>
      <trkpt lat="46.35985" lon="-0.85571">
        <ele>6.1999998092651</ele>
        <time>2015-09-21T07:17:15.000Z</time>
      </trkpt>
      <trkpt lat="46.35975" lon="-0.85561">
        <ele>6</ele>
        <time>2015-09-21T07:17:24.000Z</time>
      </trkpt>
      <trkpt lat="46.35968" lon="-0.85551">
        <ele>6</ele>
        <time>2015-09-21T07:17:32.000Z</time>
      </trkpt>
      <trkpt lat="46.35957" lon="-0.85537">
        <ele>6.1999998092651</ele>
        <time>2015-09-21T07:17:43.000Z</time>
      </trkpt>
      <trkpt lat="46.35949" lon="-0.85524">
        <ele>6.4000000953674</ele>
        <time>2015-09-21T07:17:53.000Z</time>
      </trkpt>
      <trkpt lat="46.35943" lon="-0.8551">
        <ele>6.5999999046326</ele>
        <time>2015-09-21T07:18:02.000Z</time>
      </trkpt>
      <trkpt lat="46.35937" lon="-0.85495">
        <ele>6.4000000953674</ele>
        <time>2015-09-21T07:18:11.000Z</time>
      </trkpt>
      <trkpt lat="46.35931" lon="-0.85477">
        <ele>6.4000000953674</ele>
        <time>2015-09-21T07:18:22.000Z</time>
      </trkpt>
      <trkpt lat="46.35926" lon="-0.85459">
        <ele>6.1999998092651</ele>
        <time>2015-09-21T07:18:32.000Z</time>
      </trkpt>
      <trkpt lat="46.35923" lon="-0.85441">
        <ele>6</ele>
        <time>2015-09-21T07:18:42.000Z</time>
      </trkpt>
      <trkpt lat="46.35923" lon="-0.85418">
        <ele>6</ele>
        <time>2015-09-21T07:18:54.000Z</time>
      </trkpt>
      <trkpt lat="46.35923" lon="-0.85397">
        <ele>6</ele>
        <time>2015-09-21T07:19:05.000Z</time>
      </trkpt>
      <trkpt lat="46.35922" lon="-0.85376">
        <ele>5.8000001907349</ele>
        <time>2015-09-21T07:19:16.000Z</time>
      </trkpt>
      <trkpt lat="46.35922" lon="-0.85357">
        <ele>5.8000001907349</ele>
        <time>2015-09-21T07:19:26.000Z</time>
      </trkpt>
      <trkpt lat="46.35922" lon="-0.85333">
        <ele>5.8000001907349</ele>
        <time>2015-09-21T07:19:38.000Z</time>
      </trkpt>
      <trkpt lat="46.35924" lon="-0.85312">
        <ele>5.5999999046326</ele>
        <time>2015-09-21T07:19:49.000Z</time>
      </trkpt>
      <trkpt lat="46.35927" lon="-0.85275">
        <ele>5.5999999046326</ele>
        <time>2015-09-21T07:20:08.000Z</time>
      </trkpt>
      <trkpt lat="46.35926" lon="-0.85269">
        <ele>5.5999999046326</ele>
        <time>2015-09-21T07:20:14.000Z</time>
      </trkpt>
      <trkpt lat="46.35923" lon="-0.85265">
        <ele>5.5999999046326</ele>
        <time>2015-09-21T07:20:21.000Z</time>
      </trkpt>
      <trkpt lat="46.35917" lon="-0.85255">
        <ele>5.4000000953674</ele>
        <time>2015-09-21T07:20:29.000Z</time>
      </trkpt>
      <trkpt lat="46.35912" lon="-0.85247">
        <ele>5.1999998092651</ele>
        <time>2015-09-21T07:20:38.000Z</time>
      </trkpt>
      <trkpt lat="46.35909" lon="-0.85242">
        <ele>5.1999998092651</ele>
        <time>2015-09-21T07:20:44.000Z</time>
      </trkpt>
      <trkpt lat="46.35905" lon="-0.85235">
        <ele>5.1999998092651</ele>
        <time>2015-09-21T07:20:52.000Z</time>
      </trkpt>
      <trkpt lat="46.35896" lon="-0.85218">
        <ele>5</ele>
        <time>2015-09-21T07:21:06.000Z</time>
      </trkpt>
      <trkpt lat="46.35887" lon="-0.85201">
        <ele>4.8000001907349</ele>
        <time>2015-09-21T07:21:18.000Z</time>
      </trkpt>
      <trkpt lat="46.3588" lon="-0.85189">
        <ele>4.8000001907349</ele>
        <time>2015-09-21T07:21:27.000Z</time>
      </trkpt>
      <trkpt lat="46.35874" lon="-0.85176">
        <ele>4.8000001907349</ele>
        <time>2015-09-21T07:21:36.000Z</time>
      </trkpt>
      <trkpt lat="46.35867" lon="-0.85163">
        <ele>4.8000001907349</ele>
        <time>2015-09-21T07:21:46.000Z</time>
      </trkpt>
      <trkpt lat="46.3586" lon="-0.8515">
        <ele>5</ele>
        <time>2015-09-21T07:21:55.000Z</time>
      </trkpt>
      <trkpt lat="46.35852" lon="-0.85136">
        <ele>5</ele>
        <time>2015-09-21T07:22:04.000Z</time>
      </trkpt>
      <trkpt lat="46.35846" lon="-0.85123">
        <ele>5.1999998092651</ele>
        <time>2015-09-21T07:22:13.000Z</time>
      </trkpt>
      <trkpt lat="46.35837" lon="-0.85113">
        <ele>5.4000000953674</ele>
        <time>2015-09-21T07:22:22.000Z</time>
      </trkpt>
      <trkpt lat="46.35832" lon="-0.85103">
        <ele>5.5999999046326</ele>
        <time>2015-09-21T07:22:29.000Z</time>
      </trkpt>
      <trkpt lat="46.35826" lon="-0.85089">
        <ele>5.8000001907349</ele>
        <time>2015-09-21T07:22:38.000Z</time>
      </trkpt>
      <trkpt lat="46.35817" lon="-0.85075">
        <ele>6</ele>
        <time>2015-09-21T07:22:47.000Z</time>
      </trkpt>
      <trkpt lat="46.35811" lon="-0.85069">
        <ele>6</ele>
        <time>2015-09-21T07:22:53.000Z</time>
      </trkpt>
      <trkpt lat="46.35802" lon="-0.85053">
        <ele>5.5999999046326</ele>
        <time>2015-09-21T07:23:04.000Z</time>
      </trkpt>
      <trkpt lat="46.35797" lon="-0.85044">
        <ele>5.4000000953674</ele>
        <time>2015-09-21T07:23:10.000Z</time>
      </trkpt>
      <trkpt lat="46.35791" lon="-0.85035">
        <ele>5</ele>
        <time>2015-09-21T07:23:17.000Z</time>
      </trkpt>
      <trkpt lat="46.35781" lon="-0.85019">
        <ele>4.1999998092651</ele>
        <time>2015-09-21T07:23:28.000Z</time>
      </trkpt>
      <trkpt lat="46.35773" lon="-0.85007">
        <ele>4</ele>
        <time>2015-09-21T07:23:37.000Z</time>
      </trkpt>
      <trkpt lat="46.35766" lon="-0.84996">
        <ele>4</ele>
        <time>2015-09-21T07:23:45.000Z</time>
      </trkpt>
      <trkpt lat="46.35765" lon="-0.84995">
        <ele>4</ele>
        <time>2015-09-21T07:23:47.000Z</time>
      </trkpt>
      <trkpt lat="46.35763" lon="-0.84989">
        <ele>4</ele>
        <time>2015-09-21T07:23:56.000Z</time>
      </trkpt>
      <trkpt lat="46.35755" lon="-0.84977">
        <ele>4</ele>
        <time>2015-09-21T07:24:05.000Z</time>
      </trkpt>
      <trkpt lat="46.35747" lon="-0.84965">
        <ele>3.7999999523163</ele>
        <time>2015-09-21T07:24:13.000Z</time>
      </trkpt>
      <trkpt lat="46.3574" lon="-0.84953">
        <ele>3.5999999046326</ele>
        <time>2015-09-21T07:24:21.000Z</time>
      </trkpt>
      <trkpt lat="46.35734" lon="-0.84942">
        <ele>3.5999999046326</ele>
        <time>2015-09-21T07:24:29.000Z</time>
      </trkpt>
      <trkpt lat="46.3573" lon="-0.84936">
        <ele>3.5999999046326</ele>
        <time>2015-09-21T07:24:34.000Z</time>
      </trkpt>
      <trkpt lat="46.35726" lon="-0.8493">
        <ele>3.5999999046326</ele>
        <time>2015-09-21T07:24:40.000Z</time>
      </trkpt>
      <trkpt lat="46.35718" lon="-0.84916">
        <ele>3.4000000953674</ele>
        <time>2015-09-21T07:24:50.000Z</time>
      </trkpt>
      <trkpt lat="46.35705" lon="-0.84899">
        <ele>3.5999999046326</ele>
        <time>2015-09-21T07:25:02.000Z</time>
      </trkpt>
      <trkpt lat="46.35694" lon="-0.84886">
        <ele>3.7999999523163</ele>
        <time>2015-09-21T07:25:12.000Z</time>
      </trkpt>
      <trkpt lat="46.35686" lon="-0.84872">
        <ele>3.7999999523163</ele>
        <time>2015-09-21T07:25:22.000Z</time>
      </trkpt>
      <trkpt lat="46.35679" lon="-0.84861">
        <ele>4</ele>
        <time>2015-09-21T07:25:30.000Z</time>
      </trkpt>
      <trkpt lat="46.35671" lon="-0.84851">
        <ele>4</ele>
        <time>2015-09-21T07:25:37.000Z</time>
      </trkpt>
      <trkpt lat="46.3567" lon="-0.8485">
        <ele>4</ele>
        <time>2015-09-21T07:25:46.000Z</time>
      </trkpt>
      <trkpt lat="46.3567" lon="-0.8485">
        <ele>4</ele>
        <time>2015-09-21T07:25:49.000Z</time>
      </trkpt>
      <trkpt lat="46.35659" lon="-0.84834">
        <ele>4</ele>
        <time>2015-09-21T07:25:59.000Z</time>
      </trkpt>
      <trkpt lat="46.35658" lon="-0.84833">
        <ele>4</ele>
        <time>2015-09-21T07:26:00.000Z</time>
      </trkpt>
      <trkpt lat="46.35654" lon="-0.84832">
        <ele>4.1999998092651</ele>
        <time>2015-09-21T07:26:02.000Z</time>
      </trkpt>
      <trkpt lat="46.35639" lon="-0.84843">
        <ele>4.5999999046326</ele>
        <time>2015-09-21T07:26:12.000Z</time>
      </trkpt>
      <trkpt lat="46.35624" lon="-0.84854">
        <ele>4.8000001907349</ele>
        <time>2015-09-21T07:26:22.000Z</time>
      </trkpt>
      <trkpt lat="46.35613" lon="-0.84862">
        <ele>5</ele>
        <time>2015-09-21T07:26:30.000Z</time>
      </trkpt>
      <trkpt lat="46.35599" lon="-0.8487">
        <ele>5.4000000953674</ele>
        <time>2015-09-21T07:26:40.000Z</time>
      </trkpt>
      <trkpt lat="46.35591" lon="-0.84875">
        <ele>5.5999999046326</ele>
        <time>2015-09-21T07:26:46.000Z</time>
      </trkpt>
      <trkpt lat="46.3558" lon="-0.84885">
        <ele>5.8000001907349</ele>
        <time>2015-09-21T07:26:56.000Z</time>
      </trkpt>
      <trkpt lat="46.35569" lon="-0.84893">
        <ele>6</ele>
        <time>2015-09-21T07:27:04.000Z</time>
      </trkpt>
      <trkpt lat="46.35554" lon="-0.84904">
        <ele>5.8000001907349</ele>
        <time>2015-09-21T07:27:16.000Z</time>
      </trkpt>
      <trkpt lat="46.35542" lon="-0.84914">
        <ele>5.8000001907349</ele>
        <time>2015-09-21T07:27:25.000Z</time>
      </trkpt>
      <trkpt lat="46.35529" lon="-0.84922">
        <ele>5.5999999046326</ele>
        <time>2015-09-21T07:27:35.000Z</time>
      </trkpt>
      <trkpt lat="46.35519" lon="-0.84929">
        <ele>5.5999999046326</ele>
        <time>2015-09-21T07:27:43.000Z</time>
      </trkpt>
      <trkpt lat="46.35503" lon="-0.8494">
        <ele>5.4000000953674</ele>
        <time>2015-09-21T07:27:55.000Z</time>
      </trkpt>
      <trkpt lat="46.35488" lon="-0.84949">
        <ele>5.1999998092651</ele>
        <time>2015-09-21T07:28:06.000Z</time>
      </trkpt>
      <trkpt lat="46.35478" lon="-0.84956">
        <ele>5.1999998092651</ele>
        <time>2015-09-21T07:28:14.000Z</time>
      </trkpt>
      <trkpt lat="46.35467" lon="-0.84963">
        <ele>4.8000001907349</ele>
        <time>2015-09-21T07:28:23.000Z</time>
      </trkpt>
      <trkpt lat="46.35457" lon="-0.8497">
        <ele>4.4000000953674</ele>
        <time>2015-09-21T07:28:31.000Z</time>
      </trkpt>
      <trkpt lat="46.35443" lon="-0.84981">
        <ele>4</ele>
        <time>2015-09-21T07:28:43.000Z</time>
      </trkpt>
      <trkpt lat="46.35413" lon="-0.85001">
        <ele>3.4000000953674</ele>
        <time>2015-09-21T07:29:07.000Z</time>
      </trkpt>
      <trkpt lat="46.354" lon="-0.85011">
        <ele>3</ele>
        <time>2015-09-21T07:29:18.000Z</time>
      </trkpt>
      <trkpt lat="46.35388" lon="-0.8502">
        <ele>3</ele>
        <time>2015-09-21T07:29:28.000Z</time>
      </trkpt>
      <trkpt lat="46.35374" lon="-0.85029">
        <ele>3</ele>
        <time>2015-09-21T07:29:39.000Z</time>
      </trkpt>
      <trkpt lat="46.35363" lon="-0.85036">
        <ele>3</ele>
        <time>2015-09-21T07:29:48.000Z</time>
      </trkpt>
      <trkpt lat="46.35351" lon="-0.85042">
        <ele>3</ele>
        <time>2015-09-21T07:29:58.000Z</time>
      </trkpt>
      <trkpt lat="46.35334" lon="-0.85055">
        <ele>3</ele>
        <time>2015-09-21T07:30:12.000Z</time>
      </trkpt>
      <trkpt lat="46.35322" lon="-0.85065">
        <ele>3</ele>
        <time>2015-09-21T07:30:23.000Z</time>
      </trkpt>
      <trkpt lat="46.35308" lon="-0.85076">
        <ele>3</ele>
        <time>2015-09-21T07:30:35.000Z</time>
      </trkpt>
      <trkpt lat="46.35297" lon="-0.85085">
        <ele>2.7999999523163</ele>
        <time>2015-09-21T07:30:44.000Z</time>
      </trkpt>
      <trkpt lat="46.35284" lon="-0.85094">
        <ele>2.5999999046326</ele>
        <time>2015-09-21T07:30:55.000Z</time>
      </trkpt>
      <trkpt lat="46.35269" lon="-0.85105">
        <ele>2.4000000953674</ele>
        <time>2015-09-21T07:31:07.000Z</time>
      </trkpt>
      <trkpt lat="46.35254" lon="-0.85116">
        <ele>2.2000000476837</ele>
        <time>2015-09-21T07:31:19.000Z</time>
      </trkpt>
      <trkpt lat="46.3524" lon="-0.85127">
        <ele>2.2000000476837</ele>
        <time>2015-09-21T07:31:31.000Z</time>
      </trkpt>
      <trkpt lat="46.35224" lon="-0.85138">
        <ele>2.2000000476837</ele>
        <time>2015-09-21T07:31:44.000Z</time>
      </trkpt>
      <trkpt lat="46.35209" lon="-0.85147">
        <ele>2.2000000476837</ele>
        <time>2015-09-21T07:31:56.000Z</time>
      </trkpt>
      <trkpt lat="46.35194" lon="-0.85158">
        <ele>2.4000000953674</ele>
        <time>2015-09-21T07:32:08.000Z</time>
      </trkpt>
      <trkpt lat="46.35184" lon="-0.85166">
        <ele>2.5999999046326</ele>
        <time>2015-09-21T07:32:17.000Z</time>
      </trkpt>
      <trkpt lat="46.35172" lon="-0.85174">
        <ele>2.7999999523163</ele>
        <time>2015-09-21T07:32:27.000Z</time>
      </trkpt>
      <trkpt lat="46.35157" lon="-0.85185">
        <ele>2.7999999523163</ele>
        <time>2015-09-21T07:32:39.000Z</time>
      </trkpt>
      <trkpt lat="46.35142" lon="-0.85195">
        <ele>3</ele>
        <time>2015-09-21T07:32:52.000Z</time>
      </trkpt>
      <trkpt lat="46.3513" lon="-0.85204">
        <ele>3</ele>
        <time>2015-09-21T07:33:02.000Z</time>
      </trkpt>
      <trkpt lat="46.35116" lon="-0.85214">
        <ele>3</ele>
        <time>2015-09-21T07:33:14.000Z</time>
      </trkpt>
      <trkpt lat="46.35105" lon="-0.85221">
        <ele>3</ele>
        <time>2015-09-21T07:33:23.000Z</time>
      </trkpt>
      <trkpt lat="46.35092" lon="-0.8523">
        <ele>3</ele>
        <time>2015-09-21T07:33:34.000Z</time>
      </trkpt>
      <trkpt lat="46.35078" lon="-0.8524">
        <ele>2.7999999523163</ele>
        <time>2015-09-21T07:33:46.000Z</time>
      </trkpt>
      <trkpt lat="46.35064" lon="-0.85249">
        <ele>2.5999999046326</ele>
        <time>2015-09-21T07:33:58.000Z</time>
      </trkpt>
      <trkpt lat="46.3505" lon="-0.8526">
        <ele>2.5999999046326</ele>
        <time>2015-09-21T07:34:10.000Z</time>
      </trkpt>
      <trkpt lat="46.35038" lon="-0.85268">
        <ele>2.4000000953674</ele>
        <time>2015-09-21T07:34:20.000Z</time>
      </trkpt>
      <trkpt lat="46.35022" lon="-0.85279">
        <ele>2.4000000953674</ele>
        <time>2015-09-21T07:34:33.000Z</time>
      </trkpt>
      <trkpt lat="46.3501" lon="-0.85287">
        <ele>2.2000000476837</ele>
        <time>2015-09-21T07:34:43.000Z</time>
      </trkpt>
      <trkpt lat="46.34999" lon="-0.85295">
        <ele>2.2000000476837</ele>
        <time>2015-09-21T07:34:53.000Z</time>
      </trkpt>
      <trkpt lat="46.34987" lon="-0.85304">
        <ele>2</ele>
        <time>2015-09-21T07:35:04.000Z</time>
      </trkpt>
      <trkpt lat="46.34974" lon="-0.85312">
        <ele>2</ele>
        <time>2015-09-21T07:35:15.000Z</time>
      </trkpt>
      <trkpt lat="46.34959" lon="-0.85322">
        <ele>2</ele>
        <time>2015-09-21T07:35:27.000Z</time>
      </trkpt>
      <trkpt lat="46.34945" lon="-0.85333">
        <ele>1.7999999523163</ele>
        <time>2015-09-21T07:35:39.000Z</time>
      </trkpt>
      <trkpt lat="46.34932" lon="-0.85343">
        <ele>1.7999999523163</ele>
        <time>2015-09-21T07:35:50.000Z</time>
      </trkpt>
      <trkpt lat="46.34915" lon="-0.85354">
        <ele>1.7999999523163</ele>
        <time>2015-09-21T07:36:04.000Z</time>
      </trkpt>
      <trkpt lat="46.34898" lon="-0.85362">
        <ele>1.6000000238419</ele>
        <time>2015-09-21T07:36:17.000Z</time>
      </trkpt>
      <trkpt lat="46.34884" lon="-0.85362">
        <ele>1.6000000238419</ele>
        <time>2015-09-21T07:36:28.000Z</time>
      </trkpt>
      <trkpt lat="46.34872" lon="-0.85355">
        <ele>1.2000000476837</ele>
        <time>2015-09-21T07:36:38.000Z</time>
      </trkpt>
      <trkpt lat="46.34858" lon="-0.85351">
        <ele>1</ele>
        <time>2015-09-21T07:36:48.000Z</time>
      </trkpt>
      <trkpt lat="46.34844" lon="-0.85357">
        <ele>1</ele>
        <time>2015-09-21T07:36:58.000Z</time>
      </trkpt>
      <trkpt lat="46.34828" lon="-0.85371">
        <ele>1</ele>
        <time>2015-09-21T07:37:11.000Z</time>
      </trkpt>
      <trkpt lat="46.34812" lon="-0.85384">
        <ele>1</ele>
        <time>2015-09-21T07:37:23.000Z</time>
      </trkpt>
      <trkpt lat="46.34796" lon="-0.85398">
        <ele>1</ele>
        <time>2015-09-21T07:37:36.000Z</time>
      </trkpt>
      <trkpt lat="46.34785" lon="-0.85408">
        <ele>1</ele>
        <time>2015-09-21T07:37:46.000Z</time>
      </trkpt>
      <trkpt lat="46.34771" lon="-0.85419">
        <ele>1</ele>
        <time>2015-09-21T07:37:58.000Z</time>
      </trkpt>
      <trkpt lat="46.34759" lon="-0.85429">
        <ele>1</ele>
        <time>2015-09-21T07:38:08.000Z</time>
      </trkpt>
      <trkpt lat="46.34747" lon="-0.8544">
        <ele>1</ele>
        <time>2015-09-21T07:38:19.000Z</time>
      </trkpt>
      <trkpt lat="46.3473" lon="-0.85454">
        <ele>1</ele>
        <time>2015-09-21T07:38:33.000Z</time>
      </trkpt>
      <trkpt lat="46.34715" lon="-0.85466">
        <ele>1</ele>
        <time>2015-09-21T07:38:46.000Z</time>
      </trkpt>
      <trkpt lat="46.34703" lon="-0.85477">
        <ele>1.2000000476837</ele>
        <time>2015-09-21T07:38:57.000Z</time>
      </trkpt>
      <trkpt lat="46.34693" lon="-0.85486">
        <ele>1.3999999761581</ele>
        <time>2015-09-21T07:39:06.000Z</time>
      </trkpt>
      <trkpt lat="46.34684" lon="-0.85492">
        <ele>1.3999999761581</ele>
        <time>2015-09-21T07:39:14.000Z</time>
      </trkpt>
      <trkpt lat="46.34671" lon="-0.85502">
        <ele>1.6000000238419</ele>
        <time>2015-09-21T07:39:25.000Z</time>
      </trkpt>
      <trkpt lat="46.3466" lon="-0.8551">
        <ele>1.7999999523163</ele>
        <time>2015-09-21T07:39:34.000Z</time>
      </trkpt>
      <trkpt lat="46.34646" lon="-0.85519">
        <ele>2.2000000476837</ele>
        <time>2015-09-21T07:39:45.000Z</time>
      </trkpt>
      <trkpt lat="46.34629" lon="-0.85532">
        <ele>2.4000000953674</ele>
        <time>2015-09-21T07:39:59.000Z</time>
      </trkpt>
      <trkpt lat="46.34613" lon="-0.85543">
        <ele>2.7999999523163</ele>
        <time>2015-09-21T07:40:12.000Z</time>
      </trkpt>
      <trkpt lat="46.34601" lon="-0.85552">
        <ele>3</ele>
        <time>2015-09-21T07:40:22.000Z</time>
      </trkpt>
      <trkpt lat="46.34591" lon="-0.8556">
        <ele>3</ele>
        <time>2015-09-21T07:40:31.000Z</time>
      </trkpt>
      <trkpt lat="46.34579" lon="-0.85568">
        <ele>2.7999999523163</ele>
        <time>2015-09-21T07:40:41.000Z</time>
      </trkpt>
      <trkpt lat="46.34566" lon="-0.85578">
        <ele>2.4000000953674</ele>
        <time>2015-09-21T07:40:52.000Z</time>
      </trkpt>
      <trkpt lat="46.3455" lon="-0.8559">
        <ele>2.4000000953674</ele>
        <time>2015-09-21T07:41:06.000Z</time>
      </trkpt>
      <trkpt lat="46.3454" lon="-0.85597">
        <ele>2.4000000953674</ele>
        <time>2015-09-21T07:41:14.000Z</time>
      </trkpt>
      <trkpt lat="46.34523" lon="-0.85608">
        <ele>2.2000000476837</ele>
        <time>2015-09-21T07:41:27.000Z</time>
      </trkpt>
      <trkpt lat="46.34511" lon="-0.85618">
        <ele>2.2000000476837</ele>
        <time>2015-09-21T07:41:37.000Z</time>
      </trkpt>
      <trkpt lat="46.34495" lon="-0.8563">
        <ele>2</ele>
        <time>2015-09-21T07:41:50.000Z</time>
      </trkpt>
      <trkpt lat="46.34467" lon="-0.85649">
        <ele>2</ele>
        <time>2015-09-21T07:42:12.000Z</time>
      </trkpt>
      <trkpt lat="46.34458" lon="-0.85656">
        <ele>2</ele>
        <time>2015-09-21T07:42:20.000Z</time>
      </trkpt>
      <trkpt lat="46.34443" lon="-0.85667">
        <ele>1.7999999523163</ele>
        <time>2015-09-21T07:42:32.000Z</time>
      </trkpt>
      <trkpt lat="46.34428" lon="-0.85678">
        <ele>1.7999999523163</ele>
        <time>2015-09-21T07:42:44.000Z</time>
      </trkpt>
      <trkpt lat="46.34396" lon="-0.8569">
        <ele>1.6000000238419</ele>
        <time>2015-09-21T07:43:08.000Z</time>
      </trkpt>
      <trkpt lat="46.34382" lon="-0.8569">
        <ele>1.3999999761581</ele>
        <time>2015-09-21T07:43:18.000Z</time>
      </trkpt>
      <trkpt lat="46.34365" lon="-0.8569">
        <ele>1.2000000476837</ele>
        <time>2015-09-21T07:43:30.000Z</time>
      </trkpt>
      <trkpt lat="46.3435" lon="-0.85688">
        <ele>1</ele>
        <time>2015-09-21T07:43:41.000Z</time>
      </trkpt>
      <trkpt lat="46.34336" lon="-0.85686">
        <ele>1</ele>
        <time>2015-09-21T07:43:51.000Z</time>
      </trkpt>
      <trkpt lat="46.34318" lon="-0.85681">
        <ele>1</ele>
        <time>2015-09-21T07:44:04.000Z</time>
      </trkpt>
      <trkpt lat="46.34303" lon="-0.85676">
        <ele>1</ele>
        <time>2015-09-21T07:44:15.000Z</time>
      </trkpt>
      <trkpt lat="46.34293" lon="-0.85672">
        <ele>1</ele>
        <time>2015-09-21T07:44:23.000Z</time>
      </trkpt>
      <trkpt lat="46.34278" lon="-0.85668">
        <ele>1</ele>
        <time>2015-09-21T07:44:33.000Z</time>
      </trkpt>
      <trkpt lat="46.34262" lon="-0.85663">
        <ele>1</ele>
        <time>2015-09-21T07:44:45.000Z</time>
      </trkpt>
      <trkpt lat="46.34234" lon="-0.85653">
        <ele>1</ele>
        <time>2015-09-21T07:45:05.000Z</time>
      </trkpt>
      <trkpt lat="46.3422" lon="-0.85649">
        <ele>1</ele>
        <time>2015-09-21T07:45:15.000Z</time>
      </trkpt>
      <trkpt lat="46.34206" lon="-0.85646">
        <ele>1.2000000476837</ele>
        <time>2015-09-21T07:45:25.000Z</time>
      </trkpt>
      <trkpt lat="46.34191" lon="-0.85646">
        <ele>1.3999999761581</ele>
        <time>2015-09-21T07:45:35.000Z</time>
      </trkpt>
      <trkpt lat="46.34176" lon="-0.85645">
        <ele>1.6000000238419</ele>
        <time>2015-09-21T07:45:45.000Z</time>
      </trkpt>
      <trkpt lat="46.34162" lon="-0.85646">
        <ele>1.7999999523163</ele>
        <time>2015-09-21T07:45:55.000Z</time>
      </trkpt>
      <trkpt lat="46.34146" lon="-0.85647">
        <ele>2</ele>
        <time>2015-09-21T07:46:06.000Z</time>
      </trkpt>
      <trkpt lat="46.3413" lon="-0.85647">
        <ele>1.6000000238419</ele>
        <time>2015-09-21T07:46:17.000Z</time>
      </trkpt>
      <trkpt lat="46.34115" lon="-0.85647">
        <ele>1.3999999761581</ele>
        <time>2015-09-21T07:46:27.000Z</time>
      </trkpt>
      <trkpt lat="46.34101" lon="-0.85647">
        <ele>1</ele>
        <time>2015-09-21T07:46:37.000Z</time>
      </trkpt>
      <trkpt lat="46.34085" lon="-0.85647">
        <ele>0.60000002384186</ele>
        <time>2015-09-21T07:46:49.000Z</time>
      </trkpt>
      <trkpt lat="46.34066" lon="-0.85648">
        <ele>0.20000000298023</ele>
        <time>2015-09-21T07:47:02.000Z</time>
      </trkpt>
      <trkpt lat="46.34049" lon="-0.85647">
        <ele>0.20000000298023</ele>
        <time>2015-09-21T07:47:14.000Z</time>
      </trkpt>
      <trkpt lat="46.34032" lon="-0.85648">
        <ele>0.40000000596046</ele>
        <time>2015-09-21T07:47:26.000Z</time>
      </trkpt>
      <trkpt lat="46.34015" lon="-0.85649">
        <ele>0.80000001192093</ele>
        <time>2015-09-21T07:47:37.000Z</time>
      </trkpt>
      <trkpt lat="46.34002" lon="-0.85648">
        <ele>0.80000001192093</ele>
        <time>2015-09-21T07:47:45.000Z</time>
      </trkpt>
      <trkpt lat="46.33985" lon="-0.85648">
        <ele>1</ele>
        <time>2015-09-21T07:47:56.000Z</time>
      </trkpt>
      <trkpt lat="46.33969" lon="-0.85648">
        <ele>1.2000000476837</ele>
        <time>2015-09-21T07:48:07.000Z</time>
      </trkpt>
      <trkpt lat="46.33952" lon="-0.85649">
        <ele>1.3999999761581</ele>
        <time>2015-09-21T07:48:19.000Z</time>
      </trkpt>
      <trkpt lat="46.3394" lon="-0.85649">
        <ele>1.3999999761581</ele>
        <time>2015-09-21T07:48:27.000Z</time>
      </trkpt>
      <trkpt lat="46.33927" lon="-0.85648">
        <ele>1.6000000238419</ele>
        <time>2015-09-21T07:48:36.000Z</time>
      </trkpt>
      <trkpt lat="46.33907" lon="-0.85648">
        <ele>1.7999999523163</ele>
        <time>2015-09-21T07:48:48.000Z</time>
      </trkpt>
      <trkpt lat="46.3389" lon="-0.85647">
        <ele>2</ele>
        <time>2015-09-21T07:48:59.000Z</time>
      </trkpt>
      <trkpt lat="46.33873" lon="-0.85647">
        <ele>1.7999999523163</ele>
        <time>2015-09-21T07:49:10.000Z</time>
      </trkpt>
      <trkpt lat="46.33854" lon="-0.85647">
        <ele>1.3999999761581</ele>
        <time>2015-09-21T07:49:22.000Z</time>
      </trkpt>
      <trkpt lat="46.33837" lon="-0.85647">
        <ele>1.2000000476837</ele>
        <time>2015-09-21T07:49:33.000Z</time>
      </trkpt>
      <trkpt lat="46.33823" lon="-0.85647">
        <ele>1.2000000476837</ele>
        <time>2015-09-21T07:49:42.000Z</time>
      </trkpt>
      <trkpt lat="46.33788" lon="-0.85647">
        <ele>1.3999999761581</ele>
        <time>2015-09-21T07:50:05.000Z</time>
      </trkpt>
      <trkpt lat="46.3377" lon="-0.85647">
        <ele>1.6000000238419</ele>
        <time>2015-09-21T07:50:17.000Z</time>
      </trkpt>
      <trkpt lat="46.33753" lon="-0.85648">
        <ele>1.7999999523163</ele>
        <time>2015-09-21T07:50:28.000Z</time>
      </trkpt>
      <trkpt lat="46.33736" lon="-0.85649">
        <ele>2</ele>
        <time>2015-09-21T07:50:40.000Z</time>
      </trkpt>
      <trkpt lat="46.33719" lon="-0.8565">
        <ele>2</ele>
        <time>2015-09-21T07:50:52.000Z</time>
      </trkpt>
      <trkpt lat="46.33704" lon="-0.8565">
        <ele>2.2000000476837</ele>
        <time>2015-09-21T07:51:02.000Z</time>
      </trkpt>
      <trkpt lat="46.33691" lon="-0.85651">
        <ele>2.4000000953674</ele>
        <time>2015-09-21T07:51:11.000Z</time>
      </trkpt>
      <trkpt lat="46.33676" lon="-0.85652">
        <ele>2.5999999046326</ele>
        <time>2015-09-21T07:51:21.000Z</time>
      </trkpt>
      <trkpt lat="46.33661" lon="-0.85652">
        <ele>2.5999999046326</ele>
        <time>2015-09-21T07:51:31.000Z</time>
      </trkpt>
      <trkpt lat="46.33648" lon="-0.85651">
        <ele>2.7999999523163</ele>
        <time>2015-09-21T07:51:40.000Z</time>
      </trkpt>
      <trkpt lat="46.33628" lon="-0.8565">
        <ele>2.4000000953674</ele>
        <time>2015-09-21T07:51:52.000Z</time>
      </trkpt>
      <trkpt lat="46.33609" lon="-0.85649">
        <ele>2</ele>
        <time>2015-09-21T07:52:04.000Z</time>
      </trkpt>
      <trkpt lat="46.33594" lon="-0.85649">
        <ele>1.6000000238419</ele>
        <time>2015-09-21T07:52:14.000Z</time>
      </trkpt>
      <trkpt lat="46.33579" lon="-0.85648">
        <ele>1.2000000476837</ele>
        <time>2015-09-21T07:52:23.000Z</time>
      </trkpt>
      <trkpt lat="46.33563" lon="-0.85648">
        <ele>1</ele>
        <time>2015-09-21T07:52:34.000Z</time>
      </trkpt>
      <trkpt lat="46.33544" lon="-0.85647">
        <ele>1.2000000476837</ele>
        <time>2015-09-21T07:52:46.000Z</time>
      </trkpt>
      <trkpt lat="46.33514" lon="-0.85647">
        <ele>1.6000000238419</ele>
        <time>2015-09-21T07:53:05.000Z</time>
      </trkpt>
      <trkpt lat="46.33499" lon="-0.85646">
        <ele>1.7999999523163</ele>
        <time>2015-09-21T07:53:15.000Z</time>
      </trkpt>
      <trkpt lat="46.33483" lon="-0.85646">
        <ele>2</ele>
        <time>2015-09-21T07:53:25.000Z</time>
      </trkpt>
      <trkpt lat="46.33464" lon="-0.85647">
        <ele>1.7999999523163</ele>
        <time>2015-09-21T07:53:37.000Z</time>
      </trkpt>
      <trkpt lat="46.33455" lon="-0.85656">
        <ele>1.7999999523163</ele>
        <time>2015-09-21T07:53:44.000Z</time>
      </trkpt>
      <trkpt lat="46.3345" lon="-0.85672">
        <ele>2</ele>
        <time>2015-09-21T07:53:52.000Z</time>
      </trkpt>
      <trkpt lat="46.33447" lon="-0.85691">
        <ele>2</ele>
        <time>2015-09-21T07:54:01.000Z</time>
      </trkpt>
      <trkpt lat="46.33442" lon="-0.85716">
        <ele>2</ele>
        <time>2015-09-21T07:54:13.000Z</time>
      </trkpt>
      <trkpt lat="46.33438" lon="-0.85741">
        <ele>1.7999999523163</ele>
        <time>2015-09-21T07:54:25.000Z</time>
      </trkpt>
      <trkpt lat="46.33434" lon="-0.85767">
        <ele>1.3999999761581</ele>
        <time>2015-09-21T07:54:37.000Z</time>
      </trkpt>
      <trkpt lat="46.33426" lon="-0.85785">
        <ele>1.2000000476837</ele>
        <time>2015-09-21T07:54:47.000Z</time>
      </trkpt>
      <trkpt lat="46.33413" lon="-0.85788">
        <ele>1.2000000476837</ele>
        <time>2015-09-21T07:54:56.000Z</time>
      </trkpt>
      <trkpt lat="46.33394" lon="-0.85784">
        <ele>1.3999999761581</ele>
        <time>2015-09-21T07:55:08.000Z</time>
      </trkpt>
      <trkpt lat="46.33381" lon="-0.85781">
        <ele>1.6000000238419</ele>
        <time>2015-09-21T07:55:17.000Z</time>
      </trkpt>
      <trkpt lat="46.33365" lon="-0.85777">
        <ele>1.7999999523163</ele>
        <time>2015-09-21T07:55:27.000Z</time>
      </trkpt>
      <trkpt lat="46.33349" lon="-0.85774">
        <ele>2</ele>
        <time>2015-09-21T07:55:38.000Z</time>
      </trkpt>
      <trkpt lat="46.33332" lon="-0.85771">
        <ele>1.7999999523163</ele>
        <time>2015-09-21T07:55:49.000Z</time>
      </trkpt>
      <trkpt lat="46.33314" lon="-0.85769">
        <ele>1.6000000238419</ele>
        <time>2015-09-21T07:56:01.000Z</time>
      </trkpt>
      <trkpt lat="46.33304" lon="-0.85767">
        <ele>1.6000000238419</ele>
        <time>2015-09-21T07:56:08.000Z</time>
      </trkpt>
      <trkpt lat="46.33296" lon="-0.85765">
        <ele>1.7999999523163</ele>
        <time>2015-09-21T07:56:15.000Z</time>
      </trkpt>
      <trkpt lat="46.33293" lon="-0.85764">
        <ele>1.7999999523163</ele>
        <time>2015-09-21T07:56:17.000Z</time>
      </trkpt>
      <trkpt lat="46.33281" lon="-0.85763">
        <ele>1.7999999523163</ele>
        <time>2015-09-21T07:56:27.000Z</time>
      </trkpt>
      <trkpt lat="46.3328" lon="-0.85762">
        <ele>1.7999999523163</ele>
        <time>2015-09-21T07:56:32.000Z</time>
      </trkpt>
      <trkpt lat="46.33277" lon="-0.85762">
        <ele>2</ele>
        <time>2015-09-21T07:56:40.000Z</time>
      </trkpt>
      <trkpt lat="46.33274" lon="-0.85762">
        <ele>2</ele>
        <time>2015-09-21T07:56:46.000Z</time>
      </trkpt>
      <trkpt lat="46.33274" lon="-0.85766">
        <ele>2</ele>
        <time>2015-09-21T08:01:23.000Z</time>
      </trkpt>
      <trkpt lat="46.33276" lon="-0.85764">
        <ele>2</ele>
        <time>2015-09-21T08:01:28.000Z</time>
      </trkpt>
      <trkpt lat="46.33275" lon="-0.85763">
        <ele>2</ele>
        <time>2015-09-21T08:01:30.000Z</time>
      </trkpt>
      <trkpt lat="46.33273" lon="-0.85761">
        <ele>2</ele>
        <time>2015-09-21T08:01:33.000Z</time>
      </trkpt>
      <trkpt lat="46.33274" lon="-0.85761">
        <ele>2</ele>
        <time>2015-09-21T08:01:39.000Z</time>
      </trkpt>
      <trkpt lat="46.33273" lon="-0.85757">
        <ele>1.7999999523163</ele>
        <time>2015-09-21T08:01:56.000Z</time>
      </trkpt>
      <trkpt lat="46.33268" lon="-0.85757">
        <ele>2</ele>
        <time>2015-09-21T08:02:00.000Z</time>
      </trkpt>
      <trkpt lat="46.33272" lon="-0.85763">
        <ele>2</ele>
        <time>2015-09-21T08:02:08.000Z</time>
      </trkpt>
      <trkpt lat="46.3327" lon="-0.85761">
        <ele>2</ele>
        <time>2015-09-21T08:04:41.000Z</time>
      </trkpt>
      <trkpt lat="46.33263" lon="-0.85759">
        <ele>2</ele>
        <time>2015-09-21T08:04:48.000Z</time>
      </trkpt>
      <trkpt lat="46.33254" lon="-0.85757">
        <ele>2.2000000476837</ele>
        <time>2015-09-21T08:04:57.000Z</time>
      </trkpt>
      <trkpt lat="46.33248" lon="-0.85757">
        <ele>2.2000000476837</ele>
        <time>2015-09-21T08:05:03.000Z</time>
      </trkpt>
      <trkpt lat="46.33244" lon="-0.85756">
        <ele>2.2000000476837</ele>
        <time>2015-09-21T08:05:08.000Z</time>
      </trkpt>
      <trkpt lat="46.33236" lon="-0.8575">
        <ele>2.2000000476837</ele>
        <time>2015-09-21T08:05:16.000Z</time>
      </trkpt>
      <trkpt lat="46.33235" lon="-0.8575">
        <ele>2.2000000476837</ele>
        <time>2015-09-21T08:05:17.000Z</time>
      </trkpt>
      <trkpt lat="46.33234" lon="-0.8575">
        <ele>2.2000000476837</ele>
        <time>2015-09-21T08:05:18.000Z</time>
      </trkpt>
      <trkpt lat="46.33224" lon="-0.85745">
        <ele>2.2000000476837</ele>
        <time>2015-09-21T08:05:26.000Z</time>
      </trkpt>
      <trkpt lat="46.33212" lon="-0.85737">
        <ele>2.2000000476837</ele>
        <time>2015-09-21T08:05:36.000Z</time>
      </trkpt>
      <trkpt lat="46.33203" lon="-0.85733">
        <ele>2</ele>
        <time>2015-09-21T08:05:43.000Z</time>
      </trkpt>
      <trkpt lat="46.33183" lon="-0.85722">
        <ele>1.3999999761581</ele>
        <time>2015-09-21T08:06:01.000Z</time>
      </trkpt>
      <trkpt lat="46.3317" lon="-0.85713">
        <ele>1.3999999761581</ele>
        <time>2015-09-21T08:06:11.000Z</time>
      </trkpt>
      <trkpt lat="46.3316" lon="-0.85707">
        <ele>1.3999999761581</ele>
        <time>2015-09-21T08:06:20.000Z</time>
      </trkpt>
      <trkpt lat="46.3315" lon="-0.85701">
        <ele>1</ele>
        <time>2015-09-21T08:06:28.000Z</time>
      </trkpt>
      <trkpt lat="46.33138" lon="-0.85695">
        <ele>1</ele>
        <time>2015-09-21T08:06:38.000Z</time>
      </trkpt>
      <trkpt lat="46.33124" lon="-0.85686">
        <ele>1</ele>
        <time>2015-09-21T08:06:50.000Z</time>
      </trkpt>
      <trkpt lat="46.33103" lon="-0.85677">
        <ele>1</ele>
        <time>2015-09-21T08:07:07.000Z</time>
      </trkpt>
      <trkpt lat="46.33101" lon="-0.85676">
        <ele>1.2000000476837</ele>
        <time>2015-09-21T08:07:09.000Z</time>
      </trkpt>
      <trkpt lat="46.33096" lon="-0.85685">
        <ele>1</ele>
        <time>2015-09-21T08:07:16.000Z</time>
      </trkpt>
      <trkpt lat="46.33089" lon="-0.85704">
        <ele>1</ele>
        <time>2015-09-21T08:07:27.000Z</time>
      </trkpt>
      <trkpt lat="46.33083" lon="-0.85723">
        <ele>1</ele>
        <time>2015-09-21T08:07:38.000Z</time>
      </trkpt>
      <trkpt lat="46.33077" lon="-0.8574">
        <ele>1.2000000476837</ele>
        <time>2015-09-21T08:07:48.000Z</time>
      </trkpt>
      <trkpt lat="46.3307" lon="-0.85758">
        <ele>1.3999999761581</ele>
        <time>2015-09-21T08:07:58.000Z</time>
      </trkpt>
      <trkpt lat="46.33064" lon="-0.85779">
        <ele>1.6000000238419</ele>
        <time>2015-09-21T08:08:09.000Z</time>
      </trkpt>
      <trkpt lat="46.33062" lon="-0.85796">
        <ele>1.7999999523163</ele>
        <time>2015-09-21T08:08:18.000Z</time>
      </trkpt>
      <trkpt lat="46.33063" lon="-0.8581">
        <ele>2</ele>
        <time>2015-09-21T08:08:26.000Z</time>
      </trkpt>
      <trkpt lat="46.33062" lon="-0.85813">
        <ele>2</ele>
        <time>2015-09-21T08:08:29.000Z</time>
      </trkpt>
      <trkpt lat="46.33059" lon="-0.85815">
        <ele>1.7999999523163</ele>
        <time>2015-09-21T08:08:33.000Z</time>
      </trkpt>
      <trkpt lat="46.33049" lon="-0.85811">
        <ele>2</ele>
        <time>2015-09-21T08:08:42.000Z</time>
      </trkpt>
      <trkpt lat="46.33042" lon="-0.85807">
        <ele>2</ele>
        <time>2015-09-21T08:08:50.000Z</time>
      </trkpt>
      <trkpt lat="46.33038" lon="-0.85805">
        <ele>2</ele>
        <time>2015-09-21T08:08:55.000Z</time>
      </trkpt>
      <trkpt lat="46.33033" lon="-0.85801">
        <ele>2</ele>
        <time>2015-09-21T08:09:00.000Z</time>
      </trkpt>
      <trkpt lat="46.33031" lon="-0.858">
        <ele>2</ele>
        <time>2015-09-21T08:09:03.000Z</time>
      </trkpt>
      <trkpt lat="46.33025" lon="-0.85793">
        <ele>1.7999999523163</ele>
        <time>2015-09-21T08:09:10.000Z</time>
      </trkpt>
      <trkpt lat="46.33021" lon="-0.85791">
        <ele>1.7999999523163</ele>
        <time>2015-09-21T08:09:14.000Z</time>
      </trkpt>
      <trkpt lat="46.33011" lon="-0.85783">
        <ele>1.7999999523163</ele>
        <time>2015-09-21T08:09:24.000Z</time>
      </trkpt>
      <trkpt lat="46.32998" lon="-0.85773">
        <ele>1.6000000238419</ele>
        <time>2015-09-21T08:09:35.000Z</time>
      </trkpt>
      <trkpt lat="46.32986" lon="-0.85766">
        <ele>1.6000000238419</ele>
        <time>2015-09-21T08:09:45.000Z</time>
      </trkpt>
      <trkpt lat="46.32974" lon="-0.85759">
        <ele>1.3999999761581</ele>
        <time>2015-09-21T08:09:54.000Z</time>
      </trkpt>
      <trkpt lat="46.32957" lon="-0.85749">
        <ele>1.3999999761581</ele>
        <time>2015-09-21T08:10:07.000Z</time>
      </trkpt>
      <trkpt lat="46.32943" lon="-0.85741">
        <ele>1.3999999761581</ele>
        <time>2015-09-21T08:10:18.000Z</time>
      </trkpt>
      <trkpt lat="46.32929" lon="-0.85732">
        <ele>1.6000000238419</ele>
        <time>2015-09-21T08:10:29.000Z</time>
      </trkpt>
      <trkpt lat="46.32915" lon="-0.85724">
        <ele>1.7999999523163</ele>
        <time>2015-09-21T08:10:39.000Z</time>
      </trkpt>
      <trkpt lat="46.32901" lon="-0.85716">
        <ele>2</ele>
        <time>2015-09-21T08:10:50.000Z</time>
      </trkpt>
      <trkpt lat="46.32885" lon="-0.85705">
        <ele>2</ele>
        <time>2015-09-21T08:11:02.000Z</time>
      </trkpt>
      <trkpt lat="46.32871" lon="-0.85697">
        <ele>2</ele>
        <time>2015-09-21T08:11:13.000Z</time>
      </trkpt>
      <trkpt lat="46.32858" lon="-0.8569">
        <ele>2</ele>
        <time>2015-09-21T08:11:23.000Z</time>
      </trkpt>
      <trkpt lat="46.32847" lon="-0.85683">
        <ele>2</ele>
        <time>2015-09-21T08:11:32.000Z</time>
      </trkpt>
      <trkpt lat="46.32832" lon="-0.85673">
        <ele>1.6000000238419</ele>
        <time>2015-09-21T08:11:43.000Z</time>
      </trkpt>
      <trkpt lat="46.32805" lon="-0.85657">
        <ele>1.2000000476837</ele>
        <time>2015-09-21T08:12:04.000Z</time>
      </trkpt>
      <trkpt lat="46.3279" lon="-0.85648">
        <ele>1.2000000476837</ele>
        <time>2015-09-21T08:12:15.000Z</time>
      </trkpt>
      <trkpt lat="46.32779" lon="-0.85641">
        <ele>1.3999999761581</ele>
        <time>2015-09-21T08:12:24.000Z</time>
      </trkpt>
      <trkpt lat="46.32766" lon="-0.85634">
        <ele>1.6000000238419</ele>
        <time>2015-09-21T08:12:34.000Z</time>
      </trkpt>
      <trkpt lat="46.32755" lon="-0.85627">
        <ele>1.7999999523163</ele>
        <time>2015-09-21T08:12:43.000Z</time>
      </trkpt>
      <trkpt lat="46.32746" lon="-0.85622">
        <ele>1.7999999523163</ele>
        <time>2015-09-21T08:12:51.000Z</time>
      </trkpt>
      <trkpt lat="46.32734" lon="-0.85615">
        <ele>1.3999999761581</ele>
        <time>2015-09-21T08:12:59.000Z</time>
      </trkpt>
      <trkpt lat="46.32732" lon="-0.85614">
        <ele>1.3999999761581</ele>
        <time>2015-09-21T08:13:01.000Z</time>
      </trkpt>
      <trkpt lat="46.32718" lon="-0.85604">
        <ele>1.2000000476837</ele>
        <time>2015-09-21T08:13:11.000Z</time>
      </trkpt>
      <trkpt lat="46.32705" lon="-0.85595">
        <ele>1</ele>
        <time>2015-09-21T08:13:21.000Z</time>
      </trkpt>
      <trkpt lat="46.3269" lon="-0.85586">
        <ele>0.80000001192093</ele>
        <time>2015-09-21T08:13:32.000Z</time>
      </trkpt>
      <trkpt lat="46.32678" lon="-0.85579">
        <ele>1</ele>
        <time>2015-09-21T08:13:42.000Z</time>
      </trkpt>
      <trkpt lat="46.32667" lon="-0.85573">
        <ele>1</ele>
        <time>2015-09-21T08:13:50.000Z</time>
      </trkpt>
      <trkpt lat="46.32655" lon="-0.85565">
        <ele>1</ele>
        <time>2015-09-21T08:13:59.000Z</time>
      </trkpt>
      <trkpt lat="46.32644" lon="-0.8556">
        <ele>1</ele>
        <time>2015-09-21T08:14:08.000Z</time>
      </trkpt>
      <trkpt lat="46.32635" lon="-0.85554">
        <ele>1.2000000476837</ele>
        <time>2015-09-21T08:14:15.000Z</time>
      </trkpt>
      <trkpt lat="46.3262" lon="-0.85544">
        <ele>1.3999999761581</ele>
        <time>2015-09-21T08:14:26.000Z</time>
      </trkpt>
      <trkpt lat="46.32608" lon="-0.85536">
        <ele>1.7999999523163</ele>
        <time>2015-09-21T08:14:36.000Z</time>
      </trkpt>
      <trkpt lat="46.32594" lon="-0.85526">
        <ele>2</ele>
        <time>2015-09-21T08:14:47.000Z</time>
      </trkpt>
      <trkpt lat="46.32582" lon="-0.85519">
        <ele>2</ele>
        <time>2015-09-21T08:14:56.000Z</time>
      </trkpt>
      <trkpt lat="46.32568" lon="-0.85518">
        <ele>2</ele>
        <time>2015-09-21T08:15:06.000Z</time>
      </trkpt>
      <trkpt lat="46.32559" lon="-0.8552">
        <ele>2</ele>
        <time>2015-09-21T08:15:13.000Z</time>
      </trkpt>
      <trkpt lat="46.32547" lon="-0.8552">
        <ele>2</ele>
        <time>2015-09-21T08:15:21.000Z</time>
      </trkpt>
      <trkpt lat="46.32546" lon="-0.85518">
        <ele>2</ele>
        <time>2015-09-21T08:15:22.000Z</time>
      </trkpt>
      <trkpt lat="46.32539" lon="-0.85516">
        <ele>2</ele>
        <time>2015-09-21T08:15:27.000Z</time>
      </trkpt>
      <trkpt lat="46.32537" lon="-0.85515">
        <ele>2</ele>
        <time>2015-09-21T08:15:28.000Z</time>
      </trkpt>
      <trkpt lat="46.32529" lon="-0.85511">
        <ele>2</ele>
        <time>2015-09-21T08:15:34.000Z</time>
      </trkpt>
      <trkpt lat="46.32525" lon="-0.85509">
        <ele>2</ele>
        <time>2015-09-21T08:15:37.000Z</time>
      </trkpt>
      <trkpt lat="46.32517" lon="-0.85504">
        <ele>2.4000000953674</ele>
        <time>2015-09-21T08:15:44.000Z</time>
      </trkpt>
      <trkpt lat="46.32503" lon="-0.85497">
        <ele>2.7999999523163</ele>
        <time>2015-09-21T08:15:54.000Z</time>
      </trkpt>
      <trkpt lat="46.32492" lon="-0.85491">
        <ele>3.2000000476837</ele>
        <time>2015-09-21T08:16:02.000Z</time>
      </trkpt>
      <trkpt lat="46.32479" lon="-0.85486">
        <ele>3.5999999046326</ele>
        <time>2015-09-21T08:16:12.000Z</time>
      </trkpt>
      <trkpt lat="46.32466" lon="-0.85481">
        <ele>3.7999999523163</ele>
        <time>2015-09-21T08:16:21.000Z</time>
      </trkpt>
      <trkpt lat="46.32455" lon="-0.8548">
        <ele>3.7999999523163</ele>
        <time>2015-09-21T08:16:29.000Z</time>
      </trkpt>
      <trkpt lat="46.32438" lon="-0.85481">
        <ele>3.7999999523163</ele>
        <time>2015-09-21T08:16:41.000Z</time>
      </trkpt>
      <trkpt lat="46.32426" lon="-0.85482">
        <ele>3.7999999523163</ele>
        <time>2015-09-21T08:16:50.000Z</time>
      </trkpt>
      <trkpt lat="46.32416" lon="-0.85482">
        <ele>3.7999999523163</ele>
        <time>2015-09-21T08:16:56.000Z</time>
      </trkpt>
      <trkpt lat="46.32402" lon="-0.85484">
        <ele>3.7999999523163</ele>
        <time>2015-09-21T08:17:06.000Z</time>
      </trkpt>
      <trkpt lat="46.3239" lon="-0.85486">
        <ele>3.5999999046326</ele>
        <time>2015-09-21T08:17:14.000Z</time>
      </trkpt>
      <trkpt lat="46.32375" lon="-0.85488">
        <ele>3.5999999046326</ele>
        <time>2015-09-21T08:17:26.000Z</time>
      </trkpt>
      <trkpt lat="46.32364" lon="-0.85491">
        <ele>3.5999999046326</ele>
        <time>2015-09-21T08:17:34.000Z</time>
      </trkpt>
      <trkpt lat="46.32357" lon="-0.85495">
        <ele>3.4000000953674</ele>
        <time>2015-09-21T08:17:40.000Z</time>
      </trkpt>
      <trkpt lat="46.32344" lon="-0.85501">
        <ele>3.4000000953674</ele>
        <time>2015-09-21T08:17:49.000Z</time>
      </trkpt>
      <trkpt lat="46.32336" lon="-0.85508">
        <ele>3.2000000476837</ele>
        <time>2015-09-21T08:17:56.000Z</time>
      </trkpt>
      <trkpt lat="46.32327" lon="-0.85517">
        <ele>3</ele>
        <time>2015-09-21T08:18:03.000Z</time>
      </trkpt>
      <trkpt lat="46.32316" lon="-0.85531">
        <ele>2.5999999046326</ele>
        <time>2015-09-21T08:18:14.000Z</time>
      </trkpt>
      <trkpt lat="46.32308" lon="-0.85543">
        <ele>2.5999999046326</ele>
        <time>2015-09-21T08:18:23.000Z</time>
      </trkpt>
      <trkpt lat="46.32299" lon="-0.85555">
        <ele>2.5999999046326</ele>
        <time>2015-09-21T08:18:33.000Z</time>
      </trkpt>
      <trkpt lat="46.32296" lon="-0.8556">
        <ele>2.5999999046326</ele>
        <time>2015-09-21T08:18:38.000Z</time>
      </trkpt>
      <trkpt lat="46.32296" lon="-0.85562">
        <ele>2.5999999046326</ele>
        <time>2015-09-21T08:18:49.000Z</time>
      </trkpt>
      <trkpt lat="46.32299" lon="-0.85563">
        <ele>2.4000000953674</ele>
        <time>2015-09-21T08:22:48.000Z</time>
      </trkpt>
      <trkpt lat="46.32301" lon="-0.85567">
        <ele>2.2000000476837</ele>
        <time>2015-09-21T08:22:56.000Z</time>
      </trkpt>
      <trkpt lat="46.32302" lon="-0.85574">
        <ele>2.2000000476837</ele>
        <time>2015-09-21T08:23:00.000Z</time>
      </trkpt>
      <trkpt lat="46.32302" lon="-0.8558">
        <ele>2.2000000476837</ele>
        <time>2015-09-21T08:23:07.000Z</time>
      </trkpt>
      <trkpt lat="46.32301" lon="-0.85588">
        <ele>2.2000000476837</ele>
        <time>2015-09-21T08:23:13.000Z</time>
      </trkpt>
      <trkpt lat="46.32298" lon="-0.85597">
        <ele>2.2000000476837</ele>
        <time>2015-09-21T08:23:20.000Z</time>
      </trkpt>
      <trkpt lat="46.32296" lon="-0.85601">
        <ele>2.2000000476837</ele>
        <time>2015-09-21T08:23:24.000Z</time>
      </trkpt>
      <trkpt lat="46.32292" lon="-0.85612">
        <ele>2.2000000476837</ele>
        <time>2015-09-21T08:23:33.000Z</time>
      </trkpt>
      <trkpt lat="46.3229" lon="-0.85618">
        <ele>2.2000000476837</ele>
        <time>2015-09-21T08:23:38.000Z</time>
      </trkpt>
      <trkpt lat="46.32284" lon="-0.85623">
        <ele>2.4000000953674</ele>
        <time>2015-09-21T08:23:46.000Z</time>
      </trkpt>
      <trkpt lat="46.3228" lon="-0.85627">
        <ele>2.4000000953674</ele>
        <time>2015-09-21T08:23:51.000Z</time>
      </trkpt>
      <trkpt lat="46.32274" lon="-0.85631">
        <ele>2.4000000953674</ele>
        <time>2015-09-21T08:23:58.000Z</time>
      </trkpt>
      <trkpt lat="46.32268" lon="-0.85634">
        <ele>2.5999999046326</ele>
        <time>2015-09-21T08:24:05.000Z</time>
      </trkpt>
      <trkpt lat="46.32262" lon="-0.85636">
        <ele>2.5999999046326</ele>
        <time>2015-09-21T08:24:12.000Z</time>
      </trkpt>
      <trkpt lat="46.32255" lon="-0.85637">
        <ele>2.5999999046326</ele>
        <time>2015-09-21T08:24:19.000Z</time>
      </trkpt>
      <trkpt lat="46.32246" lon="-0.85639">
        <ele>2.7999999523163</ele>
        <time>2015-09-21T08:24:28.000Z</time>
      </trkpt>
      <trkpt lat="46.32238" lon="-0.85641">
        <ele>3</ele>
        <time>2015-09-21T08:24:37.000Z</time>
      </trkpt>
      <trkpt lat="46.32234" lon="-0.8564">
        <ele>3</ele>
        <time>2015-09-21T08:24:40.000Z</time>
      </trkpt>
      <trkpt lat="46.32231" lon="-0.85641">
        <ele>3</ele>
        <time>2015-09-21T08:24:44.000Z</time>
      </trkpt>
      <trkpt lat="46.32224" lon="-0.85647">
        <ele>3.2000000476837</ele>
        <time>2015-09-21T08:24:52.000Z</time>
      </trkpt>
      <trkpt lat="46.32219" lon="-0.85657">
        <ele>3.5999999046326</ele>
        <time>2015-09-21T08:25:01.000Z</time>
      </trkpt>
      <trkpt lat="46.3221" lon="-0.85664">
        <ele>3.7999999523163</ele>
        <time>2015-09-21T08:25:14.000Z</time>
      </trkpt>
      <trkpt lat="46.32205" lon="-0.85665">
        <ele>4</ele>
        <time>2015-09-21T08:25:28.000Z</time>
      </trkpt>
      <trkpt lat="46.32203" lon="-0.85666">
        <ele>4</ele>
        <time>2015-09-21T08:25:29.000Z</time>
      </trkpt>
      <trkpt lat="46.32196" lon="-0.85672">
        <ele>4.1999998092651</ele>
        <time>2015-09-21T08:25:38.000Z</time>
      </trkpt>
      <trkpt lat="46.32192" lon="-0.85677">
        <ele>4.4000000953674</ele>
        <time>2015-09-21T08:25:43.000Z</time>
      </trkpt>
      <trkpt lat="46.3219" lon="-0.85681">
        <ele>4.4000000953674</ele>
        <time>2015-09-21T08:25:46.000Z</time>
      </trkpt>
      <trkpt lat="46.32191" lon="-0.85694">
        <ele>4.8000001907349</ele>
        <time>2015-09-21T08:25:59.000Z</time>
      </trkpt>
      <trkpt lat="46.32195" lon="-0.85701">
        <ele>5</ele>
        <time>2015-09-21T08:26:06.000Z</time>
      </trkpt>
      <trkpt lat="46.32198" lon="-0.85705">
        <ele>5</ele>
        <time>2015-09-21T08:26:11.000Z</time>
      </trkpt>
      <trkpt lat="46.32198" lon="-0.85706">
        <ele>5</ele>
        <time>2015-09-21T08:26:13.000Z</time>
      </trkpt>
      <trkpt lat="46.32198" lon="-0.85711">
        <ele>5.1999998092651</ele>
        <time>2015-09-21T08:26:21.000Z</time>
      </trkpt>
      <trkpt lat="46.322" lon="-0.85721">
        <ele>5.4000000953674</ele>
        <time>2015-09-21T08:26:53.000Z</time>
      </trkpt>
      <trkpt lat="46.32201" lon="-0.85725">
        <ele>5.4000000953674</ele>
        <time>2015-09-21T08:27:02.000Z</time>
      </trkpt>
      <trkpt lat="46.32203" lon="-0.85728">
        <ele>5.4000000953674</ele>
        <time>2015-09-21T08:27:14.000Z</time>
      </trkpt>
      <trkpt lat="46.32203" lon="-0.8573">
        <ele>5.5999999046326</ele>
        <time>2015-09-21T08:27:22.000Z</time>
      </trkpt>
      <trkpt lat="46.32205" lon="-0.85732">
        <ele>5.5999999046326</ele>
        <time>2015-09-21T08:27:31.000Z</time>
      </trkpt>
      <trkpt lat="46.32207" lon="-0.85735">
        <ele>5.5999999046326</ele>
        <time>2015-09-21T08:27:44.000Z</time>
      </trkpt>
      <trkpt lat="46.3221" lon="-0.8574">
        <ele>5.5999999046326</ele>
        <time>2015-09-21T08:27:50.000Z</time>
      </trkpt>
      <trkpt lat="46.32208" lon="-0.85748">
        <ele>5.8000001907349</ele>
        <time>2015-09-21T08:27:58.000Z</time>
      </trkpt>
      <trkpt lat="46.32206" lon="-0.85754">
        <ele>5.8000001907349</ele>
        <time>2015-09-21T08:28:02.000Z</time>
      </trkpt>
      <trkpt lat="46.32204" lon="-0.8576">
        <ele>6</ele>
        <time>2015-09-21T08:28:08.000Z</time>
      </trkpt>
      <trkpt lat="46.32202" lon="-0.85768">
        <ele>6</ele>
        <time>2015-09-21T08:28:14.000Z</time>
      </trkpt>
      <trkpt lat="46.32201" lon="-0.85774">
        <ele>6</ele>
        <time>2015-09-21T08:28:20.000Z</time>
      </trkpt>
      <trkpt lat="46.322" lon="-0.8578">
        <ele>6.1999998092651</ele>
        <time>2015-09-21T08:28:26.000Z</time>
      </trkpt>
      <trkpt lat="46.32198" lon="-0.85786">
        <ele>6.1999998092651</ele>
        <time>2015-09-21T08:28:31.000Z</time>
      </trkpt>
      <trkpt lat="46.32197" lon="-0.8579">
        <ele>6.1999998092651</ele>
        <time>2015-09-21T08:28:35.000Z</time>
      </trkpt>
      <trkpt lat="46.32196" lon="-0.85796">
        <ele>6.1999998092651</ele>
        <time>2015-09-21T08:28:41.000Z</time>
      </trkpt>
      <trkpt lat="46.32196" lon="-0.85802">
        <ele>6.1999998092651</ele>
        <time>2015-09-21T08:28:44.000Z</time>
      </trkpt>
      <trkpt lat="46.32194" lon="-0.8581">
        <ele>6.1999998092651</ele>
        <time>2015-09-21T08:28:50.000Z</time>
      </trkpt>
      <trkpt lat="46.32194" lon="-0.85811">
        <ele>6.1999998092651</ele>
        <time>2015-09-21T08:28:51.000Z</time>
      </trkpt>
      <trkpt lat="46.32192" lon="-0.85826">
        <ele>5.8000001907349</ele>
        <time>2015-09-21T08:29:01.000Z</time>
      </trkpt>
      <trkpt lat="46.32191" lon="-0.85832">
        <ele>5.8000001907349</ele>
        <time>2015-09-21T08:29:05.000Z</time>
      </trkpt>
      <trkpt lat="46.32191" lon="-0.85842">
        <ele>5.5999999046326</ele>
        <time>2015-09-21T08:29:13.000Z</time>
      </trkpt>
      <trkpt lat="46.3219" lon="-0.85843">
        <ele>5.5999999046326</ele>
        <time>2015-09-21T08:29:14.000Z</time>
      </trkpt>
      <trkpt lat="46.32189" lon="-0.85849">
        <ele>5.4000000953674</ele>
        <time>2015-09-21T08:29:19.000Z</time>
      </trkpt>
      <trkpt lat="46.32189" lon="-0.85852">
        <ele>5.4000000953674</ele>
        <time>2015-09-21T08:29:21.000Z</time>
      </trkpt>
      <trkpt lat="46.32189" lon="-0.85861">
        <ele>5.1999998092651</ele>
        <time>2015-09-21T08:29:27.000Z</time>
      </trkpt>
      <trkpt lat="46.32188" lon="-0.8587">
        <ele>5</ele>
        <time>2015-09-21T08:29:35.000Z</time>
      </trkpt>
      <trkpt lat="46.32187" lon="-0.85877">
        <ele>4.8000001907349</ele>
        <time>2015-09-21T08:29:40.000Z</time>
      </trkpt>
      <trkpt lat="46.32187" lon="-0.85878">
        <ele>4.8000001907349</ele>
        <time>2015-09-21T08:29:41.000Z</time>
      </trkpt>
      <trkpt lat="46.32187" lon="-0.8588">
        <ele>4.8000001907349</ele>
        <time>2015-09-21T08:29:43.000Z</time>
      </trkpt>
      <trkpt lat="46.32187" lon="-0.85885">
        <ele>4.5999999046326</ele>
        <time>2015-09-21T08:29:47.000Z</time>
      </trkpt>
      <trkpt lat="46.32186" lon="-0.85893">
        <ele>4.5999999046326</ele>
        <time>2015-09-21T08:29:54.000Z</time>
      </trkpt>
      <trkpt lat="46.32186" lon="-0.859">
        <ele>4.8000001907349</ele>
        <time>2015-09-21T08:30:00.000Z</time>
      </trkpt>
      <trkpt lat="46.32187" lon="-0.85901">
        <ele>4.8000001907349</ele>
        <time>2015-09-21T08:30:01.000Z</time>
      </trkpt>
      <trkpt lat="46.32184" lon="-0.85914">
        <ele>5</ele>
        <time>2015-09-21T08:30:12.000Z</time>
      </trkpt>
      <trkpt lat="46.32184" lon="-0.85916">
        <ele>5</ele>
        <time>2015-09-21T08:30:13.000Z</time>
      </trkpt>
      <trkpt lat="46.32183" lon="-0.85927">
        <ele>5.1999998092651</ele>
        <time>2015-09-21T08:30:21.000Z</time>
      </trkpt>
      <trkpt lat="46.3218" lon="-0.85936">
        <ele>5.4000000953674</ele>
        <time>2015-09-21T08:30:27.000Z</time>
      </trkpt>
      <trkpt lat="46.32179" lon="-0.85944">
        <ele>5.4000000953674</ele>
        <time>2015-09-21T08:30:34.000Z</time>
      </trkpt>
      <trkpt lat="46.32179" lon="-0.85946">
        <ele>5.4000000953674</ele>
        <time>2015-09-21T08:30:35.000Z</time>
      </trkpt>
      <trkpt lat="46.32178" lon="-0.85951">
        <ele>5.5999999046326</ele>
        <time>2015-09-21T08:30:39.000Z</time>
      </trkpt>
      <trkpt lat="46.32177" lon="-0.85952">
        <ele>5.5999999046326</ele>
        <time>2015-09-21T08:30:41.000Z</time>
      </trkpt>
      <trkpt lat="46.32177" lon="-0.85953">
        <ele>5.5999999046326</ele>
        <time>2015-09-21T08:30:42.000Z</time>
      </trkpt>
      <trkpt lat="46.32176" lon="-0.85962">
        <ele>5.5999999046326</ele>
        <time>2015-09-21T08:30:48.000Z</time>
      </trkpt>
      <trkpt lat="46.32176" lon="-0.85965">
        <ele>5.5999999046326</ele>
        <time>2015-09-21T08:30:50.000Z</time>
      </trkpt>
      <trkpt lat="46.32174" lon="-0.85984">
        <ele>5.5999999046326</ele>
        <time>2015-09-21T08:31:05.000Z</time>
      </trkpt>
      <trkpt lat="46.32174" lon="-0.85995">
        <ele>5.4000000953674</ele>
        <time>2015-09-21T08:31:13.000Z</time>
      </trkpt>
      <trkpt lat="46.32173" lon="-0.85998">
        <ele>5.4000000953674</ele>
        <time>2015-09-21T08:31:15.000Z</time>
      </trkpt>
      <trkpt lat="46.32169" lon="-0.86003">
        <ele>5.5999999046326</ele>
        <time>2015-09-21T08:31:22.000Z</time>
      </trkpt>
      <trkpt lat="46.32168" lon="-0.86005">
        <ele>5.5999999046326</ele>
        <time>2015-09-21T08:31:24.000Z</time>
      </trkpt>
      <trkpt lat="46.32167" lon="-0.86012">
        <ele>5.5999999046326</ele>
        <time>2015-09-21T08:31:30.000Z</time>
      </trkpt>
      <trkpt lat="46.32167" lon="-0.86015">
        <ele>5.5999999046326</ele>
        <time>2015-09-21T08:31:32.000Z</time>
      </trkpt>
      <trkpt lat="46.32166" lon="-0.86026">
        <ele>5.4000000953674</ele>
        <time>2015-09-21T08:31:40.000Z</time>
      </trkpt>
      <trkpt lat="46.32164" lon="-0.86034">
        <ele>5.4000000953674</ele>
        <time>2015-09-21T08:31:46.000Z</time>
      </trkpt>
      <trkpt lat="46.32162" lon="-0.86036">
        <ele>5.4000000953674</ele>
        <time>2015-09-21T08:31:49.000Z</time>
      </trkpt>
      <trkpt lat="46.3216" lon="-0.8604">
        <ele>5.5999999046326</ele>
        <time>2015-09-21T08:31:56.000Z</time>
      </trkpt>
      <trkpt lat="46.32156" lon="-0.86051">
        <ele>5.8000001907349</ele>
        <time>2015-09-21T08:32:12.000Z</time>
      </trkpt>
      <trkpt lat="46.32155" lon="-0.86052">
        <ele>5.8000001907349</ele>
        <time>2015-09-21T08:32:14.000Z</time>
      </trkpt>
      <trkpt lat="46.32151" lon="-0.86054">
        <ele>5.8000001907349</ele>
        <time>2015-09-21T08:32:21.000Z</time>
      </trkpt>
      <trkpt lat="46.32148" lon="-0.86056">
        <ele>6</ele>
        <time>2015-09-21T08:32:31.000Z</time>
      </trkpt>
      <trkpt lat="46.32147" lon="-0.8606">
        <ele>6</ele>
        <time>2015-09-21T08:32:35.000Z</time>
      </trkpt>
      <trkpt lat="46.32145" lon="-0.86063">
        <ele>6</ele>
        <time>2015-09-21T08:32:40.000Z</time>
      </trkpt>
      <trkpt lat="46.32142" lon="-0.86065">
        <ele>5.8000001907349</ele>
        <time>2015-09-21T08:32:46.000Z</time>
      </trkpt>
      <trkpt lat="46.32138" lon="-0.86069">
        <ele>5.8000001907349</ele>
        <time>2015-09-21T08:32:52.000Z</time>
      </trkpt>
      <trkpt lat="46.32136" lon="-0.86071">
        <ele>5.8000001907349</ele>
        <time>2015-09-21T08:32:55.000Z</time>
      </trkpt>
      <trkpt lat="46.32136" lon="-0.86075">
        <ele>5.8000001907349</ele>
        <time>2015-09-21T08:32:58.000Z</time>
      </trkpt>
      <trkpt lat="46.32137" lon="-0.86079">
        <ele>5.8000001907349</ele>
        <time>2015-09-21T08:33:02.000Z</time>
      </trkpt>
      <trkpt lat="46.32136" lon="-0.86082">
        <ele>5.5999999046326</ele>
        <time>2015-09-21T08:33:04.000Z</time>
      </trkpt>
      <trkpt lat="46.32137" lon="-0.86086">
        <ele>5.5999999046326</ele>
        <time>2015-09-21T08:33:10.000Z</time>
      </trkpt>
      <trkpt lat="46.32141" lon="-0.86091">
        <ele>5.5999999046326</ele>
        <time>2015-09-21T08:33:16.000Z</time>
      </trkpt>
      <trkpt lat="46.32142" lon="-0.86095">
        <ele>5.5999999046326</ele>
        <time>2015-09-21T08:33:22.000Z</time>
      </trkpt>
      <trkpt lat="46.32143" lon="-0.86096">
        <ele>5.5999999046326</ele>
        <time>2015-09-21T08:33:24.000Z</time>
      </trkpt>
      <trkpt lat="46.32143" lon="-0.86104">
        <ele>5.4000000953674</ele>
        <time>2015-09-21T08:33:30.000Z</time>
      </trkpt>
      <trkpt lat="46.32143" lon="-0.86105">
        <ele>5.4000000953674</ele>
        <time>2015-09-21T08:33:31.000Z</time>
      </trkpt>
      <trkpt lat="46.32144" lon="-0.86108">
        <ele>5.4000000953674</ele>
        <time>2015-09-21T08:33:34.000Z</time>
      </trkpt>
      <trkpt lat="46.32144" lon="-0.86115">
        <ele>5.1999998092651</ele>
        <time>2015-09-21T08:33:42.000Z</time>
      </trkpt>
      <trkpt lat="46.32146" lon="-0.86122">
        <ele>5.1999998092651</ele>
        <time>2015-09-21T08:33:48.000Z</time>
      </trkpt>
      <trkpt lat="46.32146" lon="-0.86125">
        <ele>5.1999998092651</ele>
        <time>2015-09-21T08:33:51.000Z</time>
      </trkpt>
      <trkpt lat="46.32147" lon="-0.86136">
        <ele>5</ele>
        <time>2015-09-21T08:34:00.000Z</time>
      </trkpt>
      <trkpt lat="46.32151" lon="-0.86145">
        <ele>5</ele>
        <time>2015-09-21T08:34:09.000Z</time>
      </trkpt>
      <trkpt lat="46.32147" lon="-0.8615">
        <ele>4.8000001907349</ele>
        <time>2015-09-21T08:34:16.000Z</time>
      </trkpt>
      <trkpt lat="46.32141" lon="-0.86154">
        <ele>4.8000001907349</ele>
        <time>2015-09-21T08:34:24.000Z</time>
      </trkpt>
      <trkpt lat="46.32139" lon="-0.86157">
        <ele>4.8000001907349</ele>
        <time>2015-09-21T08:34:27.000Z</time>
      </trkpt>
      <trkpt lat="46.32136" lon="-0.8616">
        <ele>4.8000001907349</ele>
        <time>2015-09-21T08:34:32.000Z</time>
      </trkpt>
      <trkpt lat="46.32133" lon="-0.86165">
        <ele>4.8000001907349</ele>
        <time>2015-09-21T08:34:37.000Z</time>
      </trkpt>
      <trkpt lat="46.32128" lon="-0.8617">
        <ele>4.8000001907349</ele>
        <time>2015-09-21T08:34:45.000Z</time>
      </trkpt>
      <trkpt lat="46.32128" lon="-0.86171">
        <ele>4.8000001907349</ele>
        <time>2015-09-21T08:34:46.000Z</time>
      </trkpt>
      <trkpt lat="46.32118" lon="-0.86179">
        <ele>4.8000001907349</ele>
        <time>2015-09-21T08:35:00.000Z</time>
      </trkpt>
      <trkpt lat="46.32112" lon="-0.86179">
        <ele>5</ele>
        <time>2015-09-21T08:35:07.000Z</time>
      </trkpt>
      <trkpt lat="46.32106" lon="-0.8618">
        <ele>5</ele>
        <time>2015-09-21T08:35:14.000Z</time>
      </trkpt>
      <trkpt lat="46.32106" lon="-0.8618">
        <ele>5</ele>
        <time>2015-09-21T08:35:15.000Z</time>
      </trkpt>
      <trkpt lat="46.32101" lon="-0.86181">
        <ele>5</ele>
        <time>2015-09-21T08:35:22.000Z</time>
      </trkpt>
      <trkpt lat="46.32096" lon="-0.86184">
        <ele>5</ele>
        <time>2015-09-21T08:35:29.000Z</time>
      </trkpt>
      <trkpt lat="46.32091" lon="-0.86188">
        <ele>5</ele>
        <time>2015-09-21T08:35:35.000Z</time>
      </trkpt>
      <trkpt lat="46.3209" lon="-0.86189">
        <ele>5</ele>
        <time>2015-09-21T08:35:37.000Z</time>
      </trkpt>
      <trkpt lat="46.32087" lon="-0.8619">
        <ele>5</ele>
        <time>2015-09-21T08:35:41.000Z</time>
      </trkpt>
      <trkpt lat="46.32083" lon="-0.86189">
        <ele>5</ele>
        <time>2015-09-21T08:35:45.000Z</time>
      </trkpt>
      <trkpt lat="46.32081" lon="-0.86181">
        <ele>5</ele>
        <time>2015-09-21T08:35:52.000Z</time>
      </trkpt>
      <trkpt lat="46.32078" lon="-0.86175">
        <ele>5</ele>
        <time>2015-09-21T08:35:59.000Z</time>
      </trkpt>
      <trkpt lat="46.32075" lon="-0.8617">
        <ele>5</ele>
        <time>2015-09-21T08:36:05.000Z</time>
      </trkpt>
      <trkpt lat="46.32065" lon="-0.86168">
        <ele>5</ele>
        <time>2015-09-21T08:36:19.000Z</time>
      </trkpt>
      <trkpt lat="46.32063" lon="-0.86169">
        <ele>5</ele>
        <time>2015-09-21T08:36:22.000Z</time>
      </trkpt>
      <trkpt lat="46.32059" lon="-0.86173">
        <ele>5</ele>
        <time>2015-09-21T08:36:27.000Z</time>
      </trkpt>
      <trkpt lat="46.32052" lon="-0.86177">
        <ele>5.1999998092651</ele>
        <time>2015-09-21T08:36:36.000Z</time>
      </trkpt>
      <trkpt lat="46.3205" lon="-0.86183">
        <ele>5.1999998092651</ele>
        <time>2015-09-21T08:36:41.000Z</time>
      </trkpt>
      <trkpt lat="46.32049" lon="-0.86183">
        <ele>5.1999998092651</ele>
        <time>2015-09-21T08:36:42.000Z</time>
      </trkpt>
      <trkpt lat="46.32043" lon="-0.86188">
        <ele>5.1999998092651</ele>
        <time>2015-09-21T08:36:55.000Z</time>
      </trkpt>
      <trkpt lat="46.32041" lon="-0.86188">
        <ele>5.1999998092651</ele>
        <time>2015-09-21T08:36:58.000Z</time>
      </trkpt>
      <trkpt lat="46.32038" lon="-0.86192">
        <ele>5.4000000953674</ele>
        <time>2015-09-21T08:37:02.000Z</time>
      </trkpt>
      <trkpt lat="46.32039" lon="-0.86203">
        <ele>5.1999998092651</ele>
        <time>2015-09-21T08:37:10.000Z</time>
      </trkpt>
      <trkpt lat="46.32039" lon="-0.86205">
        <ele>5.1999998092651</ele>
        <time>2015-09-21T08:37:12.000Z</time>
      </trkpt>
      <trkpt lat="46.3204" lon="-0.86206">
        <ele>5.1999998092651</ele>
        <time>2015-09-21T08:37:14.000Z</time>
      </trkpt>
      <trkpt lat="46.32039" lon="-0.86211">
        <ele>5.1999998092651</ele>
        <time>2015-09-21T08:37:18.000Z</time>
      </trkpt>
      <trkpt lat="46.32039" lon="-0.86217">
        <ele>5.1999998092651</ele>
        <time>2015-09-21T08:37:23.000Z</time>
      </trkpt>
      <trkpt lat="46.32039" lon="-0.86223">
        <ele>5.1999998092651</ele>
        <time>2015-09-21T08:37:29.000Z</time>
      </trkpt>
      <trkpt lat="46.32036" lon="-0.86227">
        <ele>5.1999998092651</ele>
        <time>2015-09-21T08:37:36.000Z</time>
      </trkpt>
      <trkpt lat="46.32032" lon="-0.86229">
        <ele>5.1999998092651</ele>
        <time>2015-09-21T08:37:41.000Z</time>
      </trkpt>
      <trkpt lat="46.32026" lon="-0.86234">
        <ele>5.1999998092651</ele>
        <time>2015-09-21T08:37:49.000Z</time>
      </trkpt>
      <trkpt lat="46.32022" lon="-0.8624">
        <ele>5</ele>
        <time>2015-09-21T08:37:55.000Z</time>
      </trkpt>
      <trkpt lat="46.32023" lon="-0.86241">
        <ele>5</ele>
        <time>2015-09-21T08:37:56.000Z</time>
      </trkpt>
      <trkpt lat="46.32025" lon="-0.86247">
        <ele>4.8000001907349</ele>
        <time>2015-09-21T08:38:00.000Z</time>
      </trkpt>
      <trkpt lat="46.32026" lon="-0.86255">
        <ele>4.5999999046326</ele>
        <time>2015-09-21T08:38:06.000Z</time>
      </trkpt>
      <trkpt lat="46.3202" lon="-0.86262">
        <ele>4.5999999046326</ele>
        <time>2015-09-21T08:38:13.000Z</time>
      </trkpt>
      <trkpt lat="46.32019" lon="-0.86262">
        <ele>4.5999999046326</ele>
        <time>2015-09-21T08:38:14.000Z</time>
      </trkpt>
      <trkpt lat="46.32006" lon="-0.86268">
        <ele>4.5999999046326</ele>
        <time>2015-09-21T08:38:25.000Z</time>
      </trkpt>
      <trkpt lat="46.31995" lon="-0.86271">
        <ele>4.5999999046326</ele>
        <time>2015-09-21T08:38:35.000Z</time>
      </trkpt>
      <trkpt lat="46.31985" lon="-0.86272">
        <ele>4.8000001907349</ele>
        <time>2015-09-21T08:38:44.000Z</time>
      </trkpt>
      <trkpt lat="46.31974" lon="-0.86272">
        <ele>4.8000001907349</ele>
        <time>2015-09-21T08:38:54.000Z</time>
      </trkpt>
      <trkpt lat="46.31963" lon="-0.86272">
        <ele>5</ele>
        <time>2015-09-21T08:39:03.000Z</time>
      </trkpt>
      <trkpt lat="46.31953" lon="-0.86272">
        <ele>5.1999998092651</ele>
        <time>2015-09-21T08:39:12.000Z</time>
      </trkpt>
      <trkpt lat="46.31948" lon="-0.86272">
        <ele>5.1999998092651</ele>
        <time>2015-09-21T08:39:17.000Z</time>
      </trkpt>
      <trkpt lat="46.31942" lon="-0.8627">
        <ele>5.4000000953674</ele>
        <time>2015-09-21T08:39:25.000Z</time>
      </trkpt>
      <trkpt lat="46.31937" lon="-0.86267">
        <ele>5.4000000953674</ele>
        <time>2015-09-21T08:39:30.000Z</time>
      </trkpt>
      <trkpt lat="46.31935" lon="-0.86265">
        <ele>5.4000000953674</ele>
        <time>2015-09-21T08:39:33.000Z</time>
      </trkpt>
      <trkpt lat="46.31927" lon="-0.86258">
        <ele>5.4000000953674</ele>
        <time>2015-09-21T08:39:42.000Z</time>
      </trkpt>
      <trkpt lat="46.31921" lon="-0.86252">
        <ele>5.1999998092651</ele>
        <time>2015-09-21T08:39:49.000Z</time>
      </trkpt>
      <trkpt lat="46.31913" lon="-0.86246">
        <ele>5.1999998092651</ele>
        <time>2015-09-21T08:39:57.000Z</time>
      </trkpt>
      <trkpt lat="46.31907" lon="-0.86237">
        <ele>5.1999998092651</ele>
        <time>2015-09-21T08:40:05.000Z</time>
      </trkpt>
      <trkpt lat="46.31899" lon="-0.86224">
        <ele>5</ele>
        <time>2015-09-21T08:40:15.000Z</time>
      </trkpt>
      <trkpt lat="46.31894" lon="-0.86214">
        <ele>5.1999998092651</ele>
        <time>2015-09-21T08:40:23.000Z</time>
      </trkpt>
      <trkpt lat="46.3189" lon="-0.86204">
        <ele>5.5999999046326</ele>
        <time>2015-09-21T08:40:30.000Z</time>
      </trkpt>
      <trkpt lat="46.31884" lon="-0.86194">
        <ele>5.8000001907349</ele>
        <time>2015-09-21T08:40:38.000Z</time>
      </trkpt>
      <trkpt lat="46.31884" lon="-0.86193">
        <ele>6</ele>
        <time>2015-09-21T08:40:39.000Z</time>
      </trkpt>
      <trkpt lat="46.31881" lon="-0.86188">
        <ele>6</ele>
        <time>2015-09-21T08:40:43.000Z</time>
      </trkpt>
      <trkpt lat="46.3188" lon="-0.86185">
        <ele>6.1999998092651</ele>
        <time>2015-09-21T08:40:45.000Z</time>
      </trkpt>
      <trkpt lat="46.31878" lon="-0.8618">
        <ele>6.4000000953674</ele>
        <time>2015-09-21T08:40:49.000Z</time>
      </trkpt>
      <trkpt lat="46.31873" lon="-0.8617">
        <ele>6.5999999046326</ele>
        <time>2015-09-21T08:40:57.000Z</time>
      </trkpt>
      <trkpt lat="46.31872" lon="-0.86168">
        <ele>6.5999999046326</ele>
        <time>2015-09-21T08:40:58.000Z</time>
      </trkpt>
      <trkpt lat="46.31868" lon="-0.8616">
        <ele>6.5999999046326</ele>
        <time>2015-09-21T08:41:04.000Z</time>
      </trkpt>
      <trkpt lat="46.31867" lon="-0.86158">
        <ele>6.5999999046326</ele>
        <time>2015-09-21T08:41:06.000Z</time>
      </trkpt>
      <trkpt lat="46.3186" lon="-0.86148">
        <ele>6.1999998092651</ele>
        <time>2015-09-21T08:41:14.000Z</time>
      </trkpt>
      <trkpt lat="46.31857" lon="-0.86144">
        <ele>6.1999998092651</ele>
        <time>2015-09-21T08:41:17.000Z</time>
      </trkpt>
      <trkpt lat="46.3185" lon="-0.86134">
        <ele>5.5999999046326</ele>
        <time>2015-09-21T08:41:26.000Z</time>
      </trkpt>
      <trkpt lat="46.31847" lon="-0.86128">
        <ele>5.4000000953674</ele>
        <time>2015-09-21T08:41:30.000Z</time>
      </trkpt>
      <trkpt lat="46.31837" lon="-0.86115">
        <ele>4.8000001907349</ele>
        <time>2015-09-21T08:41:40.000Z</time>
      </trkpt>
      <trkpt lat="46.3183" lon="-0.86114">
        <ele>4.5999999046326</ele>
        <time>2015-09-21T08:41:46.000Z</time>
      </trkpt>
      <trkpt lat="46.31824" lon="-0.86107">
        <ele>4.4000000953674</ele>
        <time>2015-09-21T08:41:52.000Z</time>
      </trkpt>
      <trkpt lat="46.31819" lon="-0.8609">
        <ele>4.1999998092651</ele>
        <time>2015-09-21T08:42:02.000Z</time>
      </trkpt>
      <trkpt lat="46.31812" lon="-0.86068">
        <ele>4</ele>
        <time>2015-09-21T08:42:14.000Z</time>
      </trkpt>
      <trkpt lat="46.31807" lon="-0.86053">
        <ele>4</ele>
        <time>2015-09-21T08:42:23.000Z</time>
      </trkpt>
      <trkpt lat="46.31803" lon="-0.86038">
        <ele>3.7999999523163</ele>
        <time>2015-09-21T08:42:32.000Z</time>
      </trkpt>
      <trkpt lat="46.318" lon="-0.86021">
        <ele>3.7999999523163</ele>
        <time>2015-09-21T08:42:41.000Z</time>
      </trkpt>
      <trkpt lat="46.31798" lon="-0.86008">
        <ele>3.7999999523163</ele>
        <time>2015-09-21T08:42:50.000Z</time>
      </trkpt>
      <trkpt lat="46.31795" lon="-0.85994">
        <ele>3.7999999523163</ele>
        <time>2015-09-21T08:42:59.000Z</time>
      </trkpt>
      <trkpt lat="46.31793" lon="-0.85982">
        <ele>3.7999999523163</ele>
        <time>2015-09-21T08:43:06.000Z</time>
      </trkpt>
      <trkpt lat="46.31792" lon="-0.85967">
        <ele>4</ele>
        <time>2015-09-21T08:43:16.000Z</time>
      </trkpt>
      <trkpt lat="46.31791" lon="-0.85953">
        <ele>4</ele>
        <time>2015-09-21T08:43:23.000Z</time>
      </trkpt>
      <trkpt lat="46.31789" lon="-0.85936">
        <ele>4</ele>
        <time>2015-09-21T08:43:33.000Z</time>
      </trkpt>
      <trkpt lat="46.31786" lon="-0.85918">
        <ele>4</ele>
        <time>2015-09-21T08:43:43.000Z</time>
      </trkpt>
      <trkpt lat="46.31786" lon="-0.85905">
        <ele>4.1999998092651</ele>
        <time>2015-09-21T08:43:51.000Z</time>
      </trkpt>
      <trkpt lat="46.31786" lon="-0.85887">
        <ele>4.4000000953674</ele>
        <time>2015-09-21T08:44:01.000Z</time>
      </trkpt>
      <trkpt lat="46.31786" lon="-0.8587">
        <ele>4.1999998092651</ele>
        <time>2015-09-21T08:44:10.000Z</time>
      </trkpt>
      <trkpt lat="46.31786" lon="-0.85852">
        <ele>3.7999999523163</ele>
        <time>2015-09-21T08:44:20.000Z</time>
      </trkpt>
      <trkpt lat="46.31785" lon="-0.85834">
        <ele>3.5999999046326</ele>
        <time>2015-09-21T08:44:30.000Z</time>
      </trkpt>
      <trkpt lat="46.31785" lon="-0.85818">
        <ele>3.5999999046326</ele>
        <time>2015-09-21T08:44:40.000Z</time>
      </trkpt>
      <trkpt lat="46.31784" lon="-0.858">
        <ele>3.7999999523163</ele>
        <time>2015-09-21T08:44:50.000Z</time>
      </trkpt>
      <trkpt lat="46.31782" lon="-0.85781">
        <ele>4.4000000953674</ele>
        <time>2015-09-21T08:45:00.000Z</time>
      </trkpt>
      <trkpt lat="46.3178" lon="-0.85762">
        <ele>4.8000001907349</ele>
        <time>2015-09-21T08:45:11.000Z</time>
      </trkpt>
      <trkpt lat="46.31778" lon="-0.85745">
        <ele>4.5999999046326</ele>
        <time>2015-09-21T08:45:20.000Z</time>
      </trkpt>
      <trkpt lat="46.31777" lon="-0.85728">
        <ele>4.1999998092651</ele>
        <time>2015-09-21T08:45:30.000Z</time>
      </trkpt>
      <trkpt lat="46.3178" lon="-0.85716">
        <ele>4.4000000953674</ele>
        <time>2015-09-21T08:45:38.000Z</time>
      </trkpt>
      <trkpt lat="46.31788" lon="-0.85709">
        <ele>4.5999999046326</ele>
        <time>2015-09-21T08:45:46.000Z</time>
      </trkpt>
      <trkpt lat="46.31793" lon="-0.85698">
        <ele>5</ele>
        <time>2015-09-21T08:45:54.000Z</time>
      </trkpt>
      <trkpt lat="46.31797" lon="-0.85689">
        <ele>5.4000000953674</ele>
        <time>2015-09-21T08:46:00.000Z</time>
      </trkpt>
      <trkpt lat="46.31801" lon="-0.8568">
        <ele>5.8000001907349</ele>
        <time>2015-09-21T08:46:07.000Z</time>
      </trkpt>
      <trkpt lat="46.31805" lon="-0.85673">
        <ele>6</ele>
        <time>2015-09-21T08:46:13.000Z</time>
      </trkpt>
      <trkpt lat="46.31806" lon="-0.85672">
        <ele>6</ele>
        <time>2015-09-21T08:46:14.000Z</time>
      </trkpt>
      <trkpt lat="46.31807" lon="-0.85669">
        <ele>6.1999998092651</ele>
        <time>2015-09-21T08:46:18.000Z</time>
      </trkpt>
      <trkpt lat="46.31812" lon="-0.85671">
        <ele>6.1999998092651</ele>
        <time>2015-09-21T08:46:26.000Z</time>
      </trkpt>
      <trkpt lat="46.31815" lon="-0.85674">
        <ele>6.1999998092651</ele>
        <time>2015-09-21T08:46:31.000Z</time>
      </trkpt>
      <trkpt lat="46.3182" lon="-0.85679">
        <ele>6</ele>
        <time>2015-09-21T08:46:37.000Z</time>
      </trkpt>
      <trkpt lat="46.31827" lon="-0.85674">
        <ele>6.1999998092651</ele>
        <time>2015-09-21T08:46:45.000Z</time>
      </trkpt>
      <trkpt lat="46.31828" lon="-0.85671">
        <ele>6.1999998092651</ele>
        <time>2015-09-21T08:46:46.000Z</time>
      </trkpt>
      <trkpt lat="46.31828" lon="-0.85665">
        <ele>6.4000000953674</ele>
        <time>2015-09-21T08:46:53.000Z</time>
      </trkpt>
      <trkpt lat="46.31828" lon="-0.85652">
        <ele>6.5999999046326</ele>
        <time>2015-09-21T08:47:02.000Z</time>
      </trkpt>
      <trkpt lat="46.31828" lon="-0.85651">
        <ele>6.8000001907349</ele>
        <time>2015-09-21T08:47:04.000Z</time>
      </trkpt>
      <trkpt lat="46.3183" lon="-0.85644">
        <ele>6.8000001907349</ele>
        <time>2015-09-21T08:47:09.000Z</time>
      </trkpt>
      <trkpt lat="46.31829" lon="-0.85639">
        <ele>7</ele>
        <time>2015-09-21T08:47:13.000Z</time>
      </trkpt>
      <trkpt lat="46.31829" lon="-0.85634">
        <ele>7</ele>
        <time>2015-09-21T08:47:21.000Z</time>
      </trkpt>
      <trkpt lat="46.31827" lon="-0.85627">
        <ele>7</ele>
        <time>2015-09-21T08:47:26.000Z</time>
      </trkpt>
      <trkpt lat="46.3183" lon="-0.85616">
        <ele>7</ele>
        <time>2015-09-21T08:47:35.000Z</time>
      </trkpt>
      <trkpt lat="46.31831" lon="-0.85613">
        <ele>6.8000001907349</ele>
        <time>2015-09-21T08:47:37.000Z</time>
      </trkpt>
      <trkpt lat="46.31836" lon="-0.85606">
        <ele>6.8000001907349</ele>
        <time>2015-09-21T08:47:45.000Z</time>
      </trkpt>
      <trkpt lat="46.31839" lon="-0.85599">
        <ele>6.8000001907349</ele>
        <time>2015-09-21T08:47:51.000Z</time>
      </trkpt>
      <trkpt lat="46.31841" lon="-0.85594">
        <ele>6.8000001907349</ele>
        <time>2015-09-21T08:47:56.000Z</time>
      </trkpt>
      <trkpt lat="46.31842" lon="-0.85591">
        <ele>6.8000001907349</ele>
        <time>2015-09-21T08:47:59.000Z</time>
      </trkpt>
      <trkpt lat="46.31844" lon="-0.85588">
        <ele>6.8000001907349</ele>
        <time>2015-09-21T08:48:01.000Z</time>
      </trkpt>
      <trkpt lat="46.31845" lon="-0.85584">
        <ele>6.8000001907349</ele>
        <time>2015-09-21T08:48:04.000Z</time>
      </trkpt>
      <trkpt lat="46.31847" lon="-0.85579">
        <ele>6.5999999046326</ele>
        <time>2015-09-21T08:48:07.000Z</time>
      </trkpt>
      <trkpt lat="46.31849" lon="-0.85575">
        <ele>6.5999999046326</ele>
        <time>2015-09-21T08:48:13.000Z</time>
      </trkpt>
      <trkpt lat="46.31852" lon="-0.85568">
        <ele>6.5999999046326</ele>
        <time>2015-09-21T08:48:21.000Z</time>
      </trkpt>
      <trkpt lat="46.31854" lon="-0.85562">
        <ele>6.5999999046326</ele>
        <time>2015-09-21T08:48:26.000Z</time>
      </trkpt>
      <trkpt lat="46.31855" lon="-0.85553">
        <ele>6.5999999046326</ele>
        <time>2015-09-21T08:48:33.000Z</time>
      </trkpt>
      <trkpt lat="46.31858" lon="-0.8555">
        <ele>6.5999999046326</ele>
        <time>2015-09-21T08:48:39.000Z</time>
      </trkpt>
      <trkpt lat="46.31861" lon="-0.85547">
        <ele>6.5999999046326</ele>
        <time>2015-09-21T08:48:43.000Z</time>
      </trkpt>
      <trkpt lat="46.31862" lon="-0.85546">
        <ele>6.5999999046326</ele>
        <time>2015-09-21T08:48:45.000Z</time>
      </trkpt>
      <trkpt lat="46.31868" lon="-0.85537">
        <ele>6.5999999046326</ele>
        <time>2015-09-21T08:48:51.000Z</time>
      </trkpt>
      <trkpt lat="46.31869" lon="-0.85535">
        <ele>6.5999999046326</ele>
        <time>2015-09-21T08:48:53.000Z</time>
      </trkpt>
      <trkpt lat="46.31873" lon="-0.85532">
        <ele>6.8000001907349</ele>
        <time>2015-09-21T08:48:56.000Z</time>
      </trkpt>
      <trkpt lat="46.31877" lon="-0.85524">
        <ele>6.8000001907349</ele>
        <time>2015-09-21T08:49:02.000Z</time>
      </trkpt>
      <trkpt lat="46.31881" lon="-0.85503">
        <ele>6.8000001907349</ele>
        <time>2015-09-21T08:49:13.000Z</time>
      </trkpt>
      <trkpt lat="46.31887" lon="-0.85488">
        <ele>6.8000001907349</ele>
        <time>2015-09-21T08:49:21.000Z</time>
      </trkpt>
      <trkpt lat="46.31894" lon="-0.85478">
        <ele>7</ele>
        <time>2015-09-21T08:49:29.000Z</time>
      </trkpt>
      <trkpt lat="46.319" lon="-0.85465">
        <ele>6.8000001907349</ele>
        <time>2015-09-21T08:49:36.000Z</time>
      </trkpt>
      <trkpt lat="46.31906" lon="-0.85453">
        <ele>6.4000000953674</ele>
        <time>2015-09-21T08:49:45.000Z</time>
      </trkpt>
      <trkpt lat="46.31912" lon="-0.85444">
        <ele>6.1999998092651</ele>
        <time>2015-09-21T08:49:51.000Z</time>
      </trkpt>
      <trkpt lat="46.31922" lon="-0.85435">
        <ele>5.8000001907349</ele>
        <time>2015-09-21T08:50:01.000Z</time>
      </trkpt>
      <trkpt lat="46.31926" lon="-0.85433">
        <ele>5.8000001907349</ele>
        <time>2015-09-21T08:50:05.000Z</time>
      </trkpt>
      <trkpt lat="46.31933" lon="-0.85443">
        <ele>5.8000001907349</ele>
        <time>2015-09-21T08:50:14.000Z</time>
      </trkpt>
      <trkpt lat="46.31938" lon="-0.85453">
        <ele>6</ele>
        <time>2015-09-21T08:50:22.000Z</time>
      </trkpt>
      <trkpt lat="46.31942" lon="-0.85465">
        <ele>6.1999998092651</ele>
        <time>2015-09-21T08:50:29.000Z</time>
      </trkpt>
      <trkpt lat="46.31948" lon="-0.85475">
        <ele>6.4000000953674</ele>
        <time>2015-09-21T08:50:36.000Z</time>
      </trkpt>
      <trkpt lat="46.31952" lon="-0.85486">
        <ele>6.4000000953674</ele>
        <time>2015-09-21T08:50:43.000Z</time>
      </trkpt>
      <trkpt lat="46.31956" lon="-0.85499">
        <ele>6.4000000953674</ele>
        <time>2015-09-21T08:50:51.000Z</time>
      </trkpt>
      <trkpt lat="46.31962" lon="-0.85511">
        <ele>6.4000000953674</ele>
        <time>2015-09-21T08:50:59.000Z</time>
      </trkpt>
      <trkpt lat="46.31967" lon="-0.8552">
        <ele>6.5999999046326</ele>
        <time>2015-09-21T08:51:07.000Z</time>
      </trkpt>
      <trkpt lat="46.31967" lon="-0.85523">
        <ele>6.5999999046326</ele>
        <time>2015-09-21T08:51:09.000Z</time>
      </trkpt>
      <trkpt lat="46.31969" lon="-0.85524">
        <ele>6.5999999046326</ele>
        <time>2015-09-21T08:51:12.000Z</time>
      </trkpt>
      <trkpt lat="46.31975" lon="-0.85517">
        <ele>6.5999999046326</ele>
        <time>2015-09-21T08:51:21.000Z</time>
      </trkpt>
      <trkpt lat="46.31981" lon="-0.85505">
        <ele>6.4000000953674</ele>
        <time>2015-09-21T08:51:30.000Z</time>
      </trkpt>
      <trkpt lat="46.31985" lon="-0.85496">
        <ele>6.1999998092651</ele>
        <time>2015-09-21T08:51:36.000Z</time>
      </trkpt>
      <trkpt lat="46.31991" lon="-0.85484">
        <ele>6.1999998092651</ele>
        <time>2015-09-21T08:51:45.000Z</time>
      </trkpt>
      <trkpt lat="46.31995" lon="-0.85473">
        <ele>6</ele>
        <time>2015-09-21T08:51:52.000Z</time>
      </trkpt>
      <trkpt lat="46.31998" lon="-0.85468">
        <ele>6</ele>
        <time>2015-09-21T08:51:55.000Z</time>
      </trkpt>
      <trkpt lat="46.32002" lon="-0.85454">
        <ele>5.8000001907349</ele>
        <time>2015-09-21T08:52:04.000Z</time>
      </trkpt>
      <trkpt lat="46.32007" lon="-0.85437">
        <ele>5.4000000953674</ele>
        <time>2015-09-21T08:52:14.000Z</time>
      </trkpt>
      <trkpt lat="46.32008" lon="-0.85435">
        <ele>5.4000000953674</ele>
        <time>2015-09-21T08:52:15.000Z</time>
      </trkpt>
      <trkpt lat="46.32016" lon="-0.85432">
        <ele>5.4000000953674</ele>
        <time>2015-09-21T08:52:23.000Z</time>
      </trkpt>
      <trkpt lat="46.32025" lon="-0.85439">
        <ele>5.5999999046326</ele>
        <time>2015-09-21T08:52:31.000Z</time>
      </trkpt>
      <trkpt lat="46.32031" lon="-0.85448">
        <ele>5.8000001907349</ele>
        <time>2015-09-21T08:52:38.000Z</time>
      </trkpt>
      <trkpt lat="46.32036" lon="-0.85458">
        <ele>5.8000001907349</ele>
        <time>2015-09-21T08:52:45.000Z</time>
      </trkpt>
      <trkpt lat="46.32042" lon="-0.85465">
        <ele>6</ele>
        <time>2015-09-21T08:52:50.000Z</time>
      </trkpt>
      <trkpt lat="46.3205" lon="-0.85462">
        <ele>5.8000001907349</ele>
        <time>2015-09-21T08:52:58.000Z</time>
      </trkpt>
      <trkpt lat="46.32053" lon="-0.85462">
        <ele>5.8000001907349</ele>
        <time>2015-09-21T08:53:00.000Z</time>
      </trkpt>
      <trkpt lat="46.3206" lon="-0.85462">
        <ele>5.8000001907349</ele>
        <time>2015-09-21T08:53:07.000Z</time>
      </trkpt>
      <trkpt lat="46.32069" lon="-0.85467">
        <ele>6</ele>
        <time>2015-09-21T08:53:14.000Z</time>
      </trkpt>
      <trkpt lat="46.32077" lon="-0.85469">
        <ele>5.8000001907349</ele>
        <time>2015-09-21T08:53:21.000Z</time>
      </trkpt>
      <trkpt lat="46.32087" lon="-0.85461">
        <ele>5.8000001907349</ele>
        <time>2015-09-21T08:53:29.000Z</time>
      </trkpt>
      <trkpt lat="46.32093" lon="-0.85449">
        <ele>5.8000001907349</ele>
        <time>2015-09-21T08:53:36.000Z</time>
      </trkpt>
      <trkpt lat="46.32098" lon="-0.85438">
        <ele>6</ele>
        <time>2015-09-21T08:53:43.000Z</time>
      </trkpt>
      <trkpt lat="46.32105" lon="-0.85424">
        <ele>6</ele>
        <time>2015-09-21T08:53:51.000Z</time>
      </trkpt>
      <trkpt lat="46.32114" lon="-0.85415">
        <ele>6</ele>
        <time>2015-09-21T08:54:00.000Z</time>
      </trkpt>
      <trkpt lat="46.32123" lon="-0.85408">
        <ele>6</ele>
        <time>2015-09-21T08:54:08.000Z</time>
      </trkpt>
      <trkpt lat="46.32131" lon="-0.85404">
        <ele>6</ele>
        <time>2015-09-21T08:54:16.000Z</time>
      </trkpt>
      <trkpt lat="46.32132" lon="-0.85403">
        <ele>6</ele>
        <time>2015-09-21T08:54:24.000Z</time>
      </trkpt>
      <trkpt lat="46.32135" lon="-0.85408">
        <ele>5.8000001907349</ele>
        <time>2015-09-21T08:54:30.000Z</time>
      </trkpt>
      <trkpt lat="46.32141" lon="-0.8542">
        <ele>5.4000000953674</ele>
        <time>2015-09-21T08:54:40.000Z</time>
      </trkpt>
      <trkpt lat="46.32145" lon="-0.85428">
        <ele>5.1999998092651</ele>
        <time>2015-09-21T08:54:48.000Z</time>
      </trkpt>
      <trkpt lat="46.32148" lon="-0.85434">
        <ele>5</ele>
        <time>2015-09-21T08:54:53.000Z</time>
      </trkpt>
      <trkpt lat="46.32149" lon="-0.85435">
        <ele>5</ele>
        <time>2015-09-21T08:54:54.000Z</time>
      </trkpt>
      <trkpt lat="46.32153" lon="-0.85444">
        <ele>4.8000001907349</ele>
        <time>2015-09-21T08:55:03.000Z</time>
      </trkpt>
      <trkpt lat="46.3216" lon="-0.85458">
        <ele>4.5999999046326</ele>
        <time>2015-09-21T08:55:13.000Z</time>
      </trkpt>
      <trkpt lat="46.32167" lon="-0.85472">
        <ele>5</ele>
        <time>2015-09-21T08:55:21.000Z</time>
      </trkpt>
      <trkpt lat="46.32172" lon="-0.85484">
        <ele>5</ele>
        <time>2015-09-21T08:55:31.000Z</time>
      </trkpt>
      <trkpt lat="46.3218" lon="-0.85499">
        <ele>5.1999998092651</ele>
        <time>2015-09-21T08:55:42.000Z</time>
      </trkpt>
      <trkpt lat="46.32188" lon="-0.85514">
        <ele>5.4000000953674</ele>
        <time>2015-09-21T08:55:53.000Z</time>
      </trkpt>
      <trkpt lat="46.32196" lon="-0.85528">
        <ele>5.1999998092651</ele>
        <time>2015-09-21T08:56:02.000Z</time>
      </trkpt>
      <trkpt lat="46.32205" lon="-0.85546">
        <ele>4.8000001907349</ele>
        <time>2015-09-21T08:56:15.000Z</time>
      </trkpt>
      <trkpt lat="46.32213" lon="-0.85559">
        <ele>4.5999999046326</ele>
        <time>2015-09-21T08:56:24.000Z</time>
      </trkpt>
      <trkpt lat="46.32222" lon="-0.8557">
        <ele>4.5999999046326</ele>
        <time>2015-09-21T08:56:33.000Z</time>
      </trkpt>
      <trkpt lat="46.32233" lon="-0.85575">
        <ele>4.4000000953674</ele>
        <time>2015-09-21T08:56:41.000Z</time>
      </trkpt>
      <trkpt lat="46.32243" lon="-0.85577">
        <ele>4</ele>
        <time>2015-09-21T08:56:50.000Z</time>
      </trkpt>
      <trkpt lat="46.32254" lon="-0.85577">
        <ele>3.5999999046326</ele>
        <time>2015-09-21T08:56:58.000Z</time>
      </trkpt>
      <trkpt lat="46.32267" lon="-0.85574">
        <ele>3.2000000476837</ele>
        <time>2015-09-21T08:57:08.000Z</time>
      </trkpt>
      <trkpt lat="46.32278" lon="-0.8557">
        <ele>3</ele>
        <time>2015-09-21T08:57:16.000Z</time>
      </trkpt>
      <trkpt lat="46.32287" lon="-0.85565">
        <ele>2.7999999523163</ele>
        <time>2015-09-21T08:57:23.000Z</time>
      </trkpt>
      <trkpt lat="46.32294" lon="-0.85557">
        <ele>2.5999999046326</ele>
        <time>2015-09-21T08:57:30.000Z</time>
      </trkpt>
      <trkpt lat="46.32301" lon="-0.85546">
        <ele>2.7999999523163</ele>
        <time>2015-09-21T08:57:38.000Z</time>
      </trkpt>
      <trkpt lat="46.32307" lon="-0.85536">
        <ele>2.7999999523163</ele>
        <time>2015-09-21T08:57:45.000Z</time>
      </trkpt>
      <trkpt lat="46.32315" lon="-0.85525">
        <ele>2.7999999523163</ele>
        <time>2015-09-21T08:57:53.000Z</time>
      </trkpt>
      <trkpt lat="46.32326" lon="-0.85513">
        <ele>3</ele>
        <time>2015-09-21T08:58:03.000Z</time>
      </trkpt>
      <trkpt lat="46.32336" lon="-0.85504">
        <ele>3.2000000476837</ele>
        <time>2015-09-21T08:58:11.000Z</time>
      </trkpt>
      <trkpt lat="46.3235" lon="-0.85496">
        <ele>3.4000000953674</ele>
        <time>2015-09-21T08:58:23.000Z</time>
      </trkpt>
      <trkpt lat="46.3236" lon="-0.85493">
        <ele>3.5999999046326</ele>
        <time>2015-09-21T08:58:31.000Z</time>
      </trkpt>
      <trkpt lat="46.32371" lon="-0.8549">
        <ele>3.5999999046326</ele>
        <time>2015-09-21T08:58:40.000Z</time>
      </trkpt>
      <trkpt lat="46.32382" lon="-0.85487">
        <ele>3.5999999046326</ele>
        <time>2015-09-21T08:58:49.000Z</time>
      </trkpt>
      <trkpt lat="46.32399" lon="-0.85483">
        <ele>3.7999999523163</ele>
        <time>2015-09-21T08:59:01.000Z</time>
      </trkpt>
      <trkpt lat="46.32417" lon="-0.8548">
        <ele>3.7999999523163</ele>
        <time>2015-09-21T08:59:14.000Z</time>
      </trkpt>
      <trkpt lat="46.32435" lon="-0.85478">
        <ele>3.7999999523163</ele>
        <time>2015-09-21T08:59:27.000Z</time>
      </trkpt>
      <trkpt lat="46.32453" lon="-0.85478">
        <ele>3.7999999523163</ele>
        <time>2015-09-21T08:59:39.000Z</time>
      </trkpt>
      <trkpt lat="46.32467" lon="-0.85482">
        <ele>3.7999999523163</ele>
        <time>2015-09-21T08:59:49.000Z</time>
      </trkpt>
      <trkpt lat="46.32482" lon="-0.85488">
        <ele>3.5999999046326</ele>
        <time>2015-09-21T09:00:00.000Z</time>
      </trkpt>
      <trkpt lat="46.32496" lon="-0.85496">
        <ele>3</ele>
        <time>2015-09-21T09:00:11.000Z</time>
      </trkpt>
      <trkpt lat="46.32509" lon="-0.85503">
        <ele>2.5999999046326</ele>
        <time>2015-09-21T09:00:21.000Z</time>
      </trkpt>
      <trkpt lat="46.32527" lon="-0.85513">
        <ele>2</ele>
        <time>2015-09-21T09:00:34.000Z</time>
      </trkpt>
      <trkpt lat="46.32544" lon="-0.85519">
        <ele>2</ele>
        <time>2015-09-21T09:00:46.000Z</time>
      </trkpt>
      <trkpt lat="46.3256" lon="-0.85517">
        <ele>2</ele>
        <time>2015-09-21T09:00:56.000Z</time>
      </trkpt>
      <trkpt lat="46.32573" lon="-0.85517">
        <ele>2</ele>
        <time>2015-09-21T09:01:06.000Z</time>
      </trkpt>
      <trkpt lat="46.32582" lon="-0.85522">
        <ele>2</ele>
        <time>2015-09-21T09:01:14.000Z</time>
      </trkpt>
      <trkpt lat="46.32591" lon="-0.85527">
        <ele>2</ele>
        <time>2015-09-21T09:01:23.000Z</time>
      </trkpt>
      <trkpt lat="46.32592" lon="-0.85527">
        <ele>2</ele>
        <time>2015-09-21T09:01:31.000Z</time>
      </trkpt>
      <trkpt lat="46.32598" lon="-0.85532">
        <ele>1.7999999523163</ele>
        <time>2015-09-21T09:02:17.000Z</time>
      </trkpt>
      <trkpt lat="46.32603" lon="-0.85535">
        <ele>1.7999999523163</ele>
        <time>2015-09-21T09:02:24.000Z</time>
      </trkpt>
      <trkpt lat="46.3261" lon="-0.85542">
        <ele>1.6000000238419</ele>
        <time>2015-09-21T09:02:31.000Z</time>
      </trkpt>
      <trkpt lat="46.32617" lon="-0.85547">
        <ele>1.3999999761581</ele>
        <time>2015-09-21T09:02:37.000Z</time>
      </trkpt>
      <trkpt lat="46.32626" lon="-0.8555">
        <ele>1.3999999761581</ele>
        <time>2015-09-21T09:02:44.000Z</time>
      </trkpt>
      <trkpt lat="46.32632" lon="-0.85552">
        <ele>1.2000000476837</ele>
        <time>2015-09-21T09:02:52.000Z</time>
      </trkpt>
      <trkpt lat="46.32636" lon="-0.85555">
        <ele>1.2000000476837</ele>
        <time>2015-09-21T09:02:57.000Z</time>
      </trkpt>
      <trkpt lat="46.32638" lon="-0.85556">
        <ele>1.2000000476837</ele>
        <time>2015-09-21T09:03:01.000Z</time>
      </trkpt>
      <trkpt lat="46.32643" lon="-0.8556">
        <ele>1</ele>
        <time>2015-09-21T09:03:10.000Z</time>
      </trkpt>
      <trkpt lat="46.32652" lon="-0.85566">
        <ele>1</ele>
        <time>2015-09-21T09:03:17.000Z</time>
      </trkpt>
      <trkpt lat="46.32655" lon="-0.85568">
        <ele>1</ele>
        <time>2015-09-21T09:03:20.000Z</time>
      </trkpt>
      <trkpt lat="46.32657" lon="-0.85566">
        <ele>1</ele>
        <time>2015-09-21T09:03:26.000Z</time>
      </trkpt>
      <trkpt lat="46.32659" lon="-0.85569">
        <ele>1</ele>
        <time>2015-09-21T09:03:45.000Z</time>
      </trkpt>
      <trkpt lat="46.3266" lon="-0.8557">
        <ele>1</ele>
        <time>2015-09-21T09:03:46.000Z</time>
      </trkpt>
      <trkpt lat="46.32667" lon="-0.85574">
        <ele>1</ele>
        <time>2015-09-21T09:03:52.000Z</time>
      </trkpt>
      <trkpt lat="46.32679" lon="-0.85582">
        <ele>1</ele>
        <time>2015-09-21T09:04:02.000Z</time>
      </trkpt>
      <trkpt lat="46.32694" lon="-0.85591">
        <ele>0.80000001192093</ele>
        <time>2015-09-21T09:04:14.000Z</time>
      </trkpt>
      <trkpt lat="46.32709" lon="-0.85599">
        <ele>1</ele>
        <time>2015-09-21T09:04:26.000Z</time>
      </trkpt>
      <trkpt lat="46.32724" lon="-0.85607">
        <ele>1.2000000476837</ele>
        <time>2015-09-21T09:04:37.000Z</time>
      </trkpt>
      <trkpt lat="46.32734" lon="-0.85615">
        <ele>1.3999999761581</ele>
        <time>2015-09-21T09:04:46.000Z</time>
      </trkpt>
      <trkpt lat="46.32745" lon="-0.85621">
        <ele>1.7999999523163</ele>
        <time>2015-09-21T09:04:54.000Z</time>
      </trkpt>
      <trkpt lat="46.32755" lon="-0.85627">
        <ele>1.7999999523163</ele>
        <time>2015-09-21T09:05:03.000Z</time>
      </trkpt>
      <trkpt lat="46.32771" lon="-0.85637">
        <ele>1.6000000238419</ele>
        <time>2015-09-21T09:05:15.000Z</time>
      </trkpt>
      <trkpt lat="46.32784" lon="-0.85645">
        <ele>1.3999999761581</ele>
        <time>2015-09-21T09:05:25.000Z</time>
      </trkpt>
      <trkpt lat="46.328" lon="-0.85655">
        <ele>1.2000000476837</ele>
        <time>2015-09-21T09:05:37.000Z</time>
      </trkpt>
      <trkpt lat="46.32813" lon="-0.85663">
        <ele>1.2000000476837</ele>
        <time>2015-09-21T09:05:47.000Z</time>
      </trkpt>
      <trkpt lat="46.32825" lon="-0.85671">
        <ele>1.6000000238419</ele>
        <time>2015-09-21T09:05:56.000Z</time>
      </trkpt>
      <trkpt lat="46.32841" lon="-0.85679">
        <ele>1.7999999523163</ele>
        <time>2015-09-21T09:06:08.000Z</time>
      </trkpt>
      <trkpt lat="46.32853" lon="-0.85688">
        <ele>2</ele>
        <time>2015-09-21T09:06:17.000Z</time>
      </trkpt>
      <trkpt lat="46.32868" lon="-0.85697">
        <ele>2</ele>
        <time>2015-09-21T09:06:28.000Z</time>
      </trkpt>
      <trkpt lat="46.32881" lon="-0.85705">
        <ele>2</ele>
        <time>2015-09-21T09:06:38.000Z</time>
      </trkpt>
      <trkpt lat="46.32896" lon="-0.85716">
        <ele>2</ele>
        <time>2015-09-21T09:06:50.000Z</time>
      </trkpt>
      <trkpt lat="46.3291" lon="-0.85724">
        <ele>1.7999999523163</ele>
        <time>2015-09-21T09:07:00.000Z</time>
      </trkpt>
      <trkpt lat="46.3292" lon="-0.85729">
        <ele>1.7999999523163</ele>
        <time>2015-09-21T09:07:07.000Z</time>
      </trkpt>
      <trkpt lat="46.32935" lon="-0.85738">
        <ele>1.6000000238419</ele>
        <time>2015-09-21T09:07:19.000Z</time>
      </trkpt>
      <trkpt lat="46.32951" lon="-0.85748">
        <ele>1.3999999761581</ele>
        <time>2015-09-21T09:07:30.000Z</time>
      </trkpt>
      <trkpt lat="46.32968" lon="-0.85758">
        <ele>1.3999999761581</ele>
        <time>2015-09-21T09:07:42.000Z</time>
      </trkpt>
      <trkpt lat="46.32981" lon="-0.85766">
        <ele>1.6000000238419</ele>
        <time>2015-09-21T09:07:51.000Z</time>
      </trkpt>
      <trkpt lat="46.32992" lon="-0.85772">
        <ele>1.6000000238419</ele>
        <time>2015-09-21T09:08:00.000Z</time>
      </trkpt>
      <trkpt lat="46.33006" lon="-0.85781">
        <ele>1.6000000238419</ele>
        <time>2015-09-21T09:08:11.000Z</time>
      </trkpt>
      <trkpt lat="46.33015" lon="-0.85787">
        <ele>1.7999999523163</ele>
        <time>2015-09-21T09:08:19.000Z</time>
      </trkpt>
      <trkpt lat="46.33025" lon="-0.85794">
        <ele>1.7999999523163</ele>
        <time>2015-09-21T09:08:26.000Z</time>
      </trkpt>
      <trkpt lat="46.33038" lon="-0.85802">
        <ele>2</ele>
        <time>2015-09-21T09:08:36.000Z</time>
      </trkpt>
      <trkpt lat="46.33053" lon="-0.85811">
        <ele>2</ele>
        <time>2015-09-21T09:08:48.000Z</time>
      </trkpt>
      <trkpt lat="46.33054" lon="-0.85812">
        <ele>2</ele>
        <time>2015-09-21T09:08:50.000Z</time>
      </trkpt>
      <trkpt lat="46.33057" lon="-0.85812">
        <ele>2</ele>
        <time>2015-09-21T09:08:56.000Z</time>
      </trkpt>
      <trkpt lat="46.33059" lon="-0.85804">
        <ele>2</ele>
        <time>2015-09-21T09:09:03.000Z</time>
      </trkpt>
      <trkpt lat="46.33058" lon="-0.85801">
        <ele>2</ele>
        <time>2015-09-21T09:09:05.000Z</time>
      </trkpt>
      <trkpt lat="46.33058" lon="-0.85781">
        <ele>1.6000000238419</ele>
        <time>2015-09-21T09:09:15.000Z</time>
      </trkpt>
      <trkpt lat="46.33065" lon="-0.85758">
        <ele>1.3999999761581</ele>
        <time>2015-09-21T09:09:26.000Z</time>
      </trkpt>
      <trkpt lat="46.33071" lon="-0.8574">
        <ele>1.2000000476837</ele>
        <time>2015-09-21T09:09:36.000Z</time>
      </trkpt>
      <trkpt lat="46.33079" lon="-0.85715">
        <ele>1</ele>
        <time>2015-09-21T09:09:49.000Z</time>
      </trkpt>
      <trkpt lat="46.33085" lon="-0.85696">
        <ele>1</ele>
        <time>2015-09-21T09:09:58.000Z</time>
      </trkpt>
      <trkpt lat="46.33093" lon="-0.85672">
        <ele>1.2000000476837</ele>
        <time>2015-09-21T09:10:11.000Z</time>
      </trkpt>
      <trkpt lat="46.331" lon="-0.85649">
        <ele>1.3999999761581</ele>
        <time>2015-09-21T09:10:23.000Z</time>
      </trkpt>
      <trkpt lat="46.33106" lon="-0.85631">
        <ele>1.7999999523163</ele>
        <time>2015-09-21T09:10:33.000Z</time>
      </trkpt>
      <trkpt lat="46.33109" lon="-0.85623">
        <ele>1.7999999523163</ele>
        <time>2015-09-21T09:10:40.000Z</time>
      </trkpt>
      <trkpt lat="46.33107" lon="-0.85628">
        <ele>1.7999999523163</ele>
        <time>2015-09-21T09:10:46.000Z</time>
      </trkpt>
      <trkpt lat="46.33102" lon="-0.8564">
        <ele>1.6000000238419</ele>
        <time>2015-09-21T09:10:54.000Z</time>
      </trkpt>
      <trkpt lat="46.33097" lon="-0.85656">
        <ele>1.3999999761581</ele>
        <time>2015-09-21T09:11:04.000Z</time>
      </trkpt>
      <trkpt lat="46.33097" lon="-0.8567">
        <ele>1.2000000476837</ele>
        <time>2015-09-21T09:11:14.000Z</time>
      </trkpt>
      <trkpt lat="46.33097" lon="-0.85671">
        <ele>1.2000000476837</ele>
        <time>2015-09-21T09:11:15.000Z</time>
      </trkpt>
      <trkpt lat="46.33109" lon="-0.85674">
        <ele>1</ele>
        <time>2015-09-21T09:11:26.000Z</time>
      </trkpt>
      <trkpt lat="46.33119" lon="-0.8568">
        <ele>1</ele>
        <time>2015-09-21T09:11:35.000Z</time>
      </trkpt>
      <trkpt lat="46.33133" lon="-0.85688">
        <ele>1</ele>
        <time>2015-09-21T09:11:46.000Z</time>
      </trkpt>
      <trkpt lat="46.33148" lon="-0.85697">
        <ele>1</ele>
        <time>2015-09-21T09:11:58.000Z</time>
      </trkpt>
      <trkpt lat="46.33158" lon="-0.85704">
        <ele>1.2000000476837</ele>
        <time>2015-09-21T09:12:07.000Z</time>
      </trkpt>
      <trkpt lat="46.33166" lon="-0.85709">
        <ele>1.3999999761581</ele>
        <time>2015-09-21T09:12:14.000Z</time>
      </trkpt>
      <trkpt lat="46.33179" lon="-0.85717">
        <ele>1.3999999761581</ele>
        <time>2015-09-21T09:12:24.000Z</time>
      </trkpt>
      <trkpt lat="46.3319" lon="-0.85724">
        <ele>1.6000000238419</ele>
        <time>2015-09-21T09:12:33.000Z</time>
      </trkpt>
      <trkpt lat="46.33204" lon="-0.85734">
        <ele>2</ele>
        <time>2015-09-21T09:12:45.000Z</time>
      </trkpt>
      <trkpt lat="46.33214" lon="-0.85742">
        <ele>2.2000000476837</ele>
        <time>2015-09-21T09:12:55.000Z</time>
      </trkpt>
      <trkpt lat="46.33232" lon="-0.85754">
        <ele>2.4000000953674</ele>
        <time>2015-09-21T09:13:13.000Z</time>
      </trkpt>
      <trkpt lat="46.33233" lon="-0.85754">
        <ele>2.4000000953674</ele>
        <time>2015-09-21T09:13:14.000Z</time>
      </trkpt>
      <trkpt lat="46.33241" lon="-0.85759">
        <ele>2.4000000953674</ele>
        <time>2015-09-21T09:13:23.000Z</time>
      </trkpt>
      <trkpt lat="46.3325" lon="-0.8576">
        <ele>2.2000000476837</ele>
        <time>2015-09-21T09:13:31.000Z</time>
      </trkpt>
      <trkpt lat="46.33258" lon="-0.8576">
        <ele>2.2000000476837</ele>
        <time>2015-09-21T09:13:37.000Z</time>
      </trkpt>
      <trkpt lat="46.33263" lon="-0.85764">
        <ele>2.2000000476837</ele>
        <time>2015-09-21T09:13:43.000Z</time>
      </trkpt>
      <trkpt lat="46.33272" lon="-0.85766">
        <ele>2</ele>
        <time>2015-09-21T09:13:50.000Z</time>
      </trkpt>
      <trkpt lat="46.33286" lon="-0.85768">
        <ele>1.7999999523163</ele>
        <time>2015-09-21T09:14:00.000Z</time>
      </trkpt>
      <trkpt lat="46.33298" lon="-0.85771">
        <ele>1.7999999523163</ele>
        <time>2015-09-21T09:14:09.000Z</time>
      </trkpt>
      <trkpt lat="46.33312" lon="-0.85774">
        <ele>1.6000000238419</ele>
        <time>2015-09-21T09:14:19.000Z</time>
      </trkpt>
      <trkpt lat="46.33328" lon="-0.85778">
        <ele>1.7999999523163</ele>
        <time>2015-09-21T09:14:31.000Z</time>
      </trkpt>
      <trkpt lat="46.33347" lon="-0.85782">
        <ele>1.7999999523163</ele>
        <time>2015-09-21T09:14:44.000Z</time>
      </trkpt>
      <trkpt lat="46.33373" lon="-0.85789">
        <ele>1.3999999761581</ele>
        <time>2015-09-21T09:15:03.000Z</time>
      </trkpt>
      <trkpt lat="46.33375" lon="-0.85789">
        <ele>1.3999999761581</ele>
        <time>2015-09-21T09:15:12.000Z</time>
      </trkpt>
      <trkpt lat="46.33379" lon="-0.85789">
        <ele>1.3999999761581</ele>
        <time>2015-09-21T09:15:44.000Z</time>
      </trkpt>
      <trkpt lat="46.33381" lon="-0.85787">
        <ele>1.3999999761581</ele>
        <time>2015-09-21T09:16:46.000Z</time>
      </trkpt>
      <trkpt lat="46.33388" lon="-0.8579">
        <ele>1.3999999761581</ele>
        <time>2015-09-21T09:18:01.000Z</time>
      </trkpt>
      <trkpt lat="46.33396" lon="-0.85791">
        <ele>1.2000000476837</ele>
        <time>2015-09-21T09:18:12.000Z</time>
      </trkpt>
      <trkpt lat="46.33403" lon="-0.85793">
        <ele>1.2000000476837</ele>
        <time>2015-09-21T09:18:20.000Z</time>
      </trkpt>
      <trkpt lat="46.33417" lon="-0.85796">
        <ele>1</ele>
        <time>2015-09-21T09:18:33.000Z</time>
      </trkpt>
      <trkpt lat="46.33425" lon="-0.85792">
        <ele>1</ele>
        <time>2015-09-21T09:18:40.000Z</time>
      </trkpt>
      <trkpt lat="46.33431" lon="-0.85779">
        <ele>1.2000000476837</ele>
        <time>2015-09-21T09:18:49.000Z</time>
      </trkpt>
      <trkpt lat="46.33434" lon="-0.85765">
        <ele>1.3999999761581</ele>
        <time>2015-09-21T09:18:57.000Z</time>
      </trkpt>
      <trkpt lat="46.33437" lon="-0.85749">
        <ele>1.6000000238419</ele>
        <time>2015-09-21T09:19:06.000Z</time>
      </trkpt>
      <trkpt lat="46.33439" lon="-0.85731">
        <ele>1.7999999523163</ele>
        <time>2015-09-21T09:19:16.000Z</time>
      </trkpt>
      <trkpt lat="46.33442" lon="-0.85708">
        <ele>2</ele>
        <time>2015-09-21T09:19:28.000Z</time>
      </trkpt>
      <trkpt lat="46.33447" lon="-0.85683">
        <ele>2</ele>
        <time>2015-09-21T09:19:42.000Z</time>
      </trkpt>
      <trkpt lat="46.33453" lon="-0.85664">
        <ele>2</ele>
        <time>2015-09-21T09:19:53.000Z</time>
      </trkpt>
      <trkpt lat="46.33464" lon="-0.85651">
        <ele>2</ele>
        <time>2015-09-21T09:20:04.000Z</time>
      </trkpt>
      <trkpt lat="46.33481" lon="-0.8565">
        <ele>2</ele>
        <time>2015-09-21T09:20:17.000Z</time>
      </trkpt>
      <trkpt lat="46.33494" lon="-0.8565">
        <ele>1.7999999523163</ele>
        <time>2015-09-21T09:20:28.000Z</time>
      </trkpt>
      <trkpt lat="46.33506" lon="-0.85652">
        <ele>1.6000000238419</ele>
        <time>2015-09-21T09:20:38.000Z</time>
      </trkpt>
      <trkpt lat="46.33523" lon="-0.85651">
        <ele>1.3999999761581</ele>
        <time>2015-09-21T09:20:49.000Z</time>
      </trkpt>
      <trkpt lat="46.33541" lon="-0.85651">
        <ele>1.2000000476837</ele>
        <time>2015-09-21T09:21:02.000Z</time>
      </trkpt>
      <trkpt lat="46.33556" lon="-0.85651">
        <ele>1</ele>
        <time>2015-09-21T09:21:13.000Z</time>
      </trkpt>
      <trkpt lat="46.33571" lon="-0.85651">
        <ele>1</ele>
        <time>2015-09-21T09:21:24.000Z</time>
      </trkpt>
      <trkpt lat="46.33588" lon="-0.85652">
        <ele>1.3999999761581</ele>
        <time>2015-09-21T09:21:36.000Z</time>
      </trkpt>
      <trkpt lat="46.33604" lon="-0.85652">
        <ele>1.7999999523163</ele>
        <time>2015-09-21T09:21:47.000Z</time>
      </trkpt>
      <trkpt lat="46.33619" lon="-0.85651">
        <ele>2.2000000476837</ele>
        <time>2015-09-21T09:21:57.000Z</time>
      </trkpt>
      <trkpt lat="46.33637" lon="-0.85651">
        <ele>2.5999999046326</ele>
        <time>2015-09-21T09:22:10.000Z</time>
      </trkpt>
      <trkpt lat="46.33656" lon="-0.85651">
        <ele>2.7999999523163</ele>
        <time>2015-09-21T09:22:23.000Z</time>
      </trkpt>
      <trkpt lat="46.33672" lon="-0.85653">
        <ele>2.5999999046326</ele>
        <time>2015-09-21T09:22:35.000Z</time>
      </trkpt>
      <trkpt lat="46.33691" lon="-0.85652">
        <ele>2.4000000953674</ele>
        <time>2015-09-21T09:22:48.000Z</time>
      </trkpt>
      <trkpt lat="46.33707" lon="-0.85651">
        <ele>2.2000000476837</ele>
        <time>2015-09-21T09:22:59.000Z</time>
      </trkpt>
      <trkpt lat="46.33725" lon="-0.8565">
        <ele>2</ele>
        <time>2015-09-21T09:23:11.000Z</time>
      </trkpt>
      <trkpt lat="46.33741" lon="-0.8565">
        <ele>1.7999999523163</ele>
        <time>2015-09-21T09:23:21.000Z</time>
      </trkpt>
      <trkpt lat="46.33756" lon="-0.8565">
        <ele>1.6000000238419</ele>
        <time>2015-09-21T09:23:31.000Z</time>
      </trkpt>
      <trkpt lat="46.33775" lon="-0.8565">
        <ele>1.3999999761581</ele>
        <time>2015-09-21T09:23:43.000Z</time>
      </trkpt>
      <trkpt lat="46.33793" lon="-0.8565">
        <ele>1.2000000476837</ele>
        <time>2015-09-21T09:23:55.000Z</time>
      </trkpt>
      <trkpt lat="46.33812" lon="-0.85651">
        <ele>1</ele>
        <time>2015-09-21T09:24:07.000Z</time>
      </trkpt>
      <trkpt lat="46.3383" lon="-0.85651">
        <ele>1.2000000476837</ele>
        <time>2015-09-21T09:24:19.000Z</time>
      </trkpt>
      <trkpt lat="46.33849" lon="-0.8565">
        <ele>1.3999999761581</ele>
        <time>2015-09-21T09:24:31.000Z</time>
      </trkpt>
      <trkpt lat="46.33867" lon="-0.8565">
        <ele>1.6000000238419</ele>
        <time>2015-09-21T09:24:43.000Z</time>
      </trkpt>
      <trkpt lat="46.33884" lon="-0.85651">
        <ele>1.7999999523163</ele>
        <time>2015-09-21T09:24:54.000Z</time>
      </trkpt>
      <trkpt lat="46.33903" lon="-0.85651">
        <ele>2</ele>
        <time>2015-09-21T09:25:06.000Z</time>
      </trkpt>
      <trkpt lat="46.33921" lon="-0.85652">
        <ele>1.7999999523163</ele>
        <time>2015-09-21T09:25:18.000Z</time>
      </trkpt>
      <trkpt lat="46.33932" lon="-0.85652">
        <ele>1.6000000238419</ele>
        <time>2015-09-21T09:25:25.000Z</time>
      </trkpt>
      <trkpt lat="46.33941" lon="-0.85652">
        <ele>1.3999999761581</ele>
        <time>2015-09-21T09:25:31.000Z</time>
      </trkpt>
      <trkpt lat="46.3396" lon="-0.85652">
        <ele>1.2000000476837</ele>
        <time>2015-09-21T09:25:43.000Z</time>
      </trkpt>
      <trkpt lat="46.3398" lon="-0.85652">
        <ele>1.2000000476837</ele>
        <time>2015-09-21T09:25:55.000Z</time>
      </trkpt>
      <trkpt lat="46.33997" lon="-0.85651">
        <ele>1</ele>
        <time>2015-09-21T09:26:06.000Z</time>
      </trkpt>
      <trkpt lat="46.34016" lon="-0.85651">
        <ele>0.80000001192093</ele>
        <time>2015-09-21T09:26:18.000Z</time>
      </trkpt>
      <trkpt lat="46.34035" lon="-0.85651">
        <ele>0.40000000596046</ele>
        <time>2015-09-21T09:26:30.000Z</time>
      </trkpt>
      <trkpt lat="46.34054" lon="-0.85651">
        <ele>0.20000000298023</ele>
        <time>2015-09-21T09:26:42.000Z</time>
      </trkpt>
      <trkpt lat="46.34074" lon="-0.85651">
        <ele>0.40000000596046</ele>
        <time>2015-09-21T09:26:54.000Z</time>
      </trkpt>
      <trkpt lat="46.34092" lon="-0.85651">
        <ele>0.80000001192093</ele>
        <time>2015-09-21T09:27:06.000Z</time>
      </trkpt>
      <trkpt lat="46.34111" lon="-0.85651">
        <ele>1.2000000476837</ele>
        <time>2015-09-21T09:27:18.000Z</time>
      </trkpt>
      <trkpt lat="46.3413" lon="-0.8565">
        <ele>1.7999999523163</ele>
        <time>2015-09-21T09:27:30.000Z</time>
      </trkpt>
      <trkpt lat="46.34148" lon="-0.8565">
        <ele>1.7999999523163</ele>
        <time>2015-09-21T09:27:42.000Z</time>
      </trkpt>
      <trkpt lat="46.34164" lon="-0.85649">
        <ele>1.6000000238419</ele>
        <time>2015-09-21T09:27:52.000Z</time>
      </trkpt>
      <trkpt lat="46.34182" lon="-0.85649">
        <ele>1.3999999761581</ele>
        <time>2015-09-21T09:28:04.000Z</time>
      </trkpt>
      <trkpt lat="46.34189" lon="-0.8565">
        <ele>1.3999999761581</ele>
        <time>2015-09-21T09:28:09.000Z</time>
      </trkpt>
      <trkpt lat="46.34198" lon="-0.85649">
        <ele>1.2000000476837</ele>
        <time>2015-09-21T09:28:14.000Z</time>
      </trkpt>
      <trkpt lat="46.34216" lon="-0.85652">
        <ele>1</ele>
        <time>2015-09-21T09:28:25.000Z</time>
      </trkpt>
      <trkpt lat="46.34252" lon="-0.85664">
        <ele>1</ele>
        <time>2015-09-21T09:28:48.000Z</time>
      </trkpt>
      <trkpt lat="46.34271" lon="-0.8567">
        <ele>1</ele>
        <time>2015-09-21T09:29:00.000Z</time>
      </trkpt>
      <trkpt lat="46.34289" lon="-0.85677">
        <ele>1</ele>
        <time>2015-09-21T09:29:11.000Z</time>
      </trkpt>
      <trkpt lat="46.34306" lon="-0.85683">
        <ele>1</ele>
        <time>2015-09-21T09:29:22.000Z</time>
      </trkpt>
      <trkpt lat="46.34322" lon="-0.85688">
        <ele>1</ele>
        <time>2015-09-21T09:29:32.000Z</time>
      </trkpt>
      <trkpt lat="46.34342" lon="-0.85692">
        <ele>1</ele>
        <time>2015-09-21T09:29:44.000Z</time>
      </trkpt>
      <trkpt lat="46.34363" lon="-0.85693">
        <ele>1.2000000476837</ele>
        <time>2015-09-21T09:29:57.000Z</time>
      </trkpt>
      <trkpt lat="46.34382" lon="-0.85694">
        <ele>1.3999999761581</ele>
        <time>2015-09-21T09:30:08.000Z</time>
      </trkpt>
      <trkpt lat="46.34398" lon="-0.85693">
        <ele>1.6000000238419</ele>
        <time>2015-09-21T09:30:18.000Z</time>
      </trkpt>
      <trkpt lat="46.34413" lon="-0.85689">
        <ele>1.7999999523163</ele>
        <time>2015-09-21T09:30:27.000Z</time>
      </trkpt>
      <trkpt lat="46.34429" lon="-0.85679">
        <ele>1.7999999523163</ele>
        <time>2015-09-21T09:30:37.000Z</time>
      </trkpt>
      <trkpt lat="46.34442" lon="-0.85668">
        <ele>1.7999999523163</ele>
        <time>2015-09-21T09:30:46.000Z</time>
      </trkpt>
      <trkpt lat="46.34459" lon="-0.85656">
        <ele>2</ele>
        <time>2015-09-21T09:30:57.000Z</time>
      </trkpt>
      <trkpt lat="46.34476" lon="-0.85643">
        <ele>2</ele>
        <time>2015-09-21T09:31:08.000Z</time>
      </trkpt>
      <trkpt lat="46.34492" lon="-0.85631">
        <ele>2</ele>
        <time>2015-09-21T09:31:19.000Z</time>
      </trkpt>
      <trkpt lat="46.34508" lon="-0.85619">
        <ele>2.2000000476837</ele>
        <time>2015-09-21T09:31:30.000Z</time>
      </trkpt>
      <trkpt lat="46.34524" lon="-0.85607">
        <ele>2.2000000476837</ele>
        <time>2015-09-21T09:31:41.000Z</time>
      </trkpt>
      <trkpt lat="46.3454" lon="-0.85596">
        <ele>2.4000000953674</ele>
        <time>2015-09-21T09:31:52.000Z</time>
      </trkpt>
      <trkpt lat="46.34556" lon="-0.85584">
        <ele>2.4000000953674</ele>
        <time>2015-09-21T09:32:03.000Z</time>
      </trkpt>
      <trkpt lat="46.3457" lon="-0.85574">
        <ele>2.5999999046326</ele>
        <time>2015-09-21T09:32:13.000Z</time>
      </trkpt>
      <trkpt lat="46.34586" lon="-0.85562">
        <ele>2.7999999523163</ele>
        <time>2015-09-21T09:32:24.000Z</time>
      </trkpt>
      <trkpt lat="46.34602" lon="-0.85551">
        <ele>2.7999999523163</ele>
        <time>2015-09-21T09:32:35.000Z</time>
      </trkpt>
      <trkpt lat="46.34617" lon="-0.8554">
        <ele>2.5999999046326</ele>
        <time>2015-09-21T09:32:45.000Z</time>
      </trkpt>
      <trkpt lat="46.34633" lon="-0.85529">
        <ele>2.4000000953674</ele>
        <time>2015-09-21T09:32:56.000Z</time>
      </trkpt>
      <trkpt lat="46.3465" lon="-0.85518">
        <ele>2</ele>
        <time>2015-09-21T09:33:07.000Z</time>
      </trkpt>
      <trkpt lat="46.34664" lon="-0.85508">
        <ele>1.7999999523163</ele>
        <time>2015-09-21T09:33:17.000Z</time>
      </trkpt>
      <trkpt lat="46.34678" lon="-0.85497">
        <ele>1.6000000238419</ele>
        <time>2015-09-21T09:33:26.000Z</time>
      </trkpt>
      <trkpt lat="46.34687" lon="-0.85489">
        <ele>1.3999999761581</ele>
        <time>2015-09-21T09:33:33.000Z</time>
      </trkpt>
      <trkpt lat="46.34697" lon="-0.8548">
        <ele>1.2000000476837</ele>
        <time>2015-09-21T09:33:40.000Z</time>
      </trkpt>
      <trkpt lat="46.34714" lon="-0.85467">
        <ele>1</ele>
        <time>2015-09-21T09:33:51.000Z</time>
      </trkpt>
      <trkpt lat="46.34725" lon="-0.85457">
        <ele>1</ele>
        <time>2015-09-21T09:33:59.000Z</time>
      </trkpt>
      <trkpt lat="46.34742" lon="-0.85444">
        <ele>1</ele>
        <time>2015-09-21T09:34:10.000Z</time>
      </trkpt>
      <trkpt lat="46.34754" lon="-0.85433">
        <ele>1</ele>
        <time>2015-09-21T09:34:18.000Z</time>
      </trkpt>
      <trkpt lat="46.34766" lon="-0.85423">
        <ele>1</ele>
        <time>2015-09-21T09:34:26.000Z</time>
      </trkpt>
      <trkpt lat="46.34782" lon="-0.8541">
        <ele>1</ele>
        <time>2015-09-21T09:34:37.000Z</time>
      </trkpt>
      <trkpt lat="46.34798" lon="-0.85397">
        <ele>1</ele>
        <time>2015-09-21T09:34:48.000Z</time>
      </trkpt>
      <trkpt lat="46.34814" lon="-0.85383">
        <ele>1</ele>
        <time>2015-09-21T09:34:59.000Z</time>
      </trkpt>
      <trkpt lat="46.34831" lon="-0.85369">
        <ele>1</ele>
        <time>2015-09-21T09:35:10.000Z</time>
      </trkpt>
      <trkpt lat="46.34848" lon="-0.85357">
        <ele>1</ele>
        <time>2015-09-21T09:35:21.000Z</time>
      </trkpt>
      <trkpt lat="46.34863" lon="-0.85357">
        <ele>1.2000000476837</ele>
        <time>2015-09-21T09:35:30.000Z</time>
      </trkpt>
      <trkpt lat="46.34876" lon="-0.85363">
        <ele>1.3999999761581</ele>
        <time>2015-09-21T09:35:39.000Z</time>
      </trkpt>
      <trkpt lat="46.34894" lon="-0.85365">
        <ele>1.6000000238419</ele>
        <time>2015-09-21T09:35:49.000Z</time>
      </trkpt>
      <trkpt lat="46.34912" lon="-0.85357">
        <ele>1.7999999523163</ele>
        <time>2015-09-21T09:36:00.000Z</time>
      </trkpt>
      <trkpt lat="46.34923" lon="-0.85349">
        <ele>1.7999999523163</ele>
        <time>2015-09-21T09:36:08.000Z</time>
      </trkpt>
      <trkpt lat="46.34931" lon="-0.85343">
        <ele>1.7999999523163</ele>
        <time>2015-09-21T09:36:14.000Z</time>
      </trkpt>
      <trkpt lat="46.34942" lon="-0.85335">
        <ele>1.7999999523163</ele>
        <time>2015-09-21T09:36:22.000Z</time>
      </trkpt>
      <trkpt lat="46.34956" lon="-0.85326">
        <ele>2</ele>
        <time>2015-09-21T09:36:31.000Z</time>
      </trkpt>
      <trkpt lat="46.3497" lon="-0.85316">
        <ele>2</ele>
        <time>2015-09-21T09:36:40.000Z</time>
      </trkpt>
      <trkpt lat="46.34985" lon="-0.85305">
        <ele>2</ele>
        <time>2015-09-21T09:36:50.000Z</time>
      </trkpt>
      <trkpt lat="46.35003" lon="-0.85293">
        <ele>2.2000000476837</ele>
        <time>2015-09-21T09:37:01.000Z</time>
      </trkpt>
      <trkpt lat="46.35017" lon="-0.85283">
        <ele>2.2000000476837</ele>
        <time>2015-09-21T09:37:10.000Z</time>
      </trkpt>
      <trkpt lat="46.3503" lon="-0.85275">
        <ele>2.4000000953674</ele>
        <time>2015-09-21T09:37:19.000Z</time>
      </trkpt>
      <trkpt lat="46.35039" lon="-0.85267">
        <ele>2.4000000953674</ele>
        <time>2015-09-21T09:37:26.000Z</time>
      </trkpt>
      <trkpt lat="46.35046" lon="-0.85263">
        <ele>2.5999999046326</ele>
        <time>2015-09-21T09:37:31.000Z</time>
      </trkpt>
      <trkpt lat="46.35061" lon="-0.85253">
        <ele>2.5999999046326</ele>
        <time>2015-09-21T09:37:41.000Z</time>
      </trkpt>
      <trkpt lat="46.35075" lon="-0.85243">
        <ele>2.7999999523163</ele>
        <time>2015-09-21T09:37:50.000Z</time>
      </trkpt>
      <trkpt lat="46.35087" lon="-0.85234">
        <ele>2.7999999523163</ele>
        <time>2015-09-21T09:37:59.000Z</time>
      </trkpt>
      <trkpt lat="46.35101" lon="-0.85224">
        <ele>3</ele>
        <time>2015-09-21T09:38:08.000Z</time>
      </trkpt>
      <trkpt lat="46.35111" lon="-0.85217">
        <ele>3</ele>
        <time>2015-09-21T09:38:15.000Z</time>
      </trkpt>
      <trkpt lat="46.35125" lon="-0.85207">
        <ele>3</ele>
        <time>2015-09-21T09:38:24.000Z</time>
      </trkpt>
      <trkpt lat="46.35138" lon="-0.85198">
        <ele>3</ele>
        <time>2015-09-21T09:38:32.000Z</time>
      </trkpt>
      <trkpt lat="46.35153" lon="-0.85188">
        <ele>3</ele>
        <time>2015-09-21T09:38:41.000Z</time>
      </trkpt>
      <trkpt lat="46.35164" lon="-0.85179">
        <ele>2.7999999523163</ele>
        <time>2015-09-21T09:38:48.000Z</time>
      </trkpt>
      <trkpt lat="46.35177" lon="-0.85171">
        <ele>2.5999999046326</ele>
        <time>2015-09-21T09:38:56.000Z</time>
      </trkpt>
      <trkpt lat="46.35191" lon="-0.85163">
        <ele>2.4000000953674</ele>
        <time>2015-09-21T09:39:05.000Z</time>
      </trkpt>
      <trkpt lat="46.35201" lon="-0.85157">
        <ele>2.4000000953674</ele>
        <time>2015-09-21T09:39:11.000Z</time>
      </trkpt>
      <trkpt lat="46.35216" lon="-0.85146">
        <ele>2.2000000476837</ele>
        <time>2015-09-21T09:39:20.000Z</time>
      </trkpt>
      <trkpt lat="46.35227" lon="-0.85137">
        <ele>2</ele>
        <time>2015-09-21T09:39:27.000Z</time>
      </trkpt>
      <trkpt lat="46.35241" lon="-0.85128">
        <ele>2.2000000476837</ele>
        <time>2015-09-21T09:39:35.000Z</time>
      </trkpt>
      <trkpt lat="46.35252" lon="-0.85119">
        <ele>2.2000000476837</ele>
        <time>2015-09-21T09:39:42.000Z</time>
      </trkpt>
      <trkpt lat="46.35269" lon="-0.85108">
        <ele>2.4000000953674</ele>
        <time>2015-09-21T09:39:51.000Z</time>
      </trkpt>
      <trkpt lat="46.35282" lon="-0.85098">
        <ele>2.5999999046326</ele>
        <time>2015-09-21T09:39:58.000Z</time>
      </trkpt>
      <trkpt lat="46.35298" lon="-0.85088">
        <ele>2.7999999523163</ele>
        <time>2015-09-21T09:40:06.000Z</time>
      </trkpt>
      <trkpt lat="46.35311" lon="-0.85078">
        <ele>3</ele>
        <time>2015-09-21T09:40:13.000Z</time>
      </trkpt>
      <trkpt lat="46.35325" lon="-0.85067">
        <ele>3</ele>
        <time>2015-09-21T09:40:21.000Z</time>
      </trkpt>
      <trkpt lat="46.35334" lon="-0.85061">
        <ele>3</ele>
        <time>2015-09-21T09:40:26.000Z</time>
      </trkpt>
      <trkpt lat="46.35348" lon="-0.85053">
        <ele>3</ele>
        <time>2015-09-21T09:40:33.000Z</time>
      </trkpt>
      <trkpt lat="46.35362" lon="-0.85043">
        <ele>3</ele>
        <time>2015-09-21T09:40:41.000Z</time>
      </trkpt>
      <trkpt lat="46.35376" lon="-0.85034">
        <ele>3</ele>
        <time>2015-09-21T09:40:48.000Z</time>
      </trkpt>
      <trkpt lat="46.3539" lon="-0.85023">
        <ele>3</ele>
        <time>2015-09-21T09:40:56.000Z</time>
      </trkpt>
      <trkpt lat="46.35405" lon="-0.85013">
        <ele>3.2000000476837</ele>
        <time>2015-09-21T09:41:03.000Z</time>
      </trkpt>
      <trkpt lat="46.35418" lon="-0.85004">
        <ele>3.4000000953674</ele>
        <time>2015-09-21T09:41:10.000Z</time>
      </trkpt>
      <trkpt lat="46.35434" lon="-0.84992">
        <ele>3.7999999523163</ele>
        <time>2015-09-21T09:41:19.000Z</time>
      </trkpt>
      <trkpt lat="46.35447" lon="-0.84982">
        <ele>4.1999998092651</ele>
        <time>2015-09-21T09:41:26.000Z</time>
      </trkpt>
      <trkpt lat="46.3546" lon="-0.84973">
        <ele>4.4000000953674</ele>
        <time>2015-09-21T09:41:33.000Z</time>
      </trkpt>
      <trkpt lat="46.35471" lon="-0.84965">
        <ele>4.8000001907349</ele>
        <time>2015-09-21T09:41:39.000Z</time>
      </trkpt>
      <trkpt lat="46.35486" lon="-0.84955">
        <ele>5.1999998092651</ele>
        <time>2015-09-21T09:41:47.000Z</time>
      </trkpt>
      <trkpt lat="46.35498" lon="-0.84946">
        <ele>5.4000000953674</ele>
        <time>2015-09-21T09:41:56.000Z</time>
      </trkpt>
      <trkpt lat="46.35515" lon="-0.84934">
        <ele>5.4000000953674</ele>
        <time>2015-09-21T09:42:08.000Z</time>
      </trkpt>
      <trkpt lat="46.35526" lon="-0.84925">
        <ele>5.5999999046326</ele>
        <time>2015-09-21T09:42:16.000Z</time>
      </trkpt>
      <trkpt lat="46.35541" lon="-0.84915">
        <ele>5.5999999046326</ele>
        <time>2015-09-21T09:42:26.000Z</time>
      </trkpt>
      <trkpt lat="46.35554" lon="-0.84905">
        <ele>5.8000001907349</ele>
        <time>2015-09-21T09:42:35.000Z</time>
      </trkpt>
      <trkpt lat="46.35568" lon="-0.84895">
        <ele>5.8000001907349</ele>
        <time>2015-09-21T09:42:45.000Z</time>
      </trkpt>
      <trkpt lat="46.35577" lon="-0.84889">
        <ele>5.8000001907349</ele>
        <time>2015-09-21T09:42:51.000Z</time>
      </trkpt>
      <trkpt lat="46.35594" lon="-0.84876">
        <ele>5.4000000953674</ele>
        <time>2015-09-21T09:43:03.000Z</time>
      </trkpt>
      <trkpt lat="46.35607" lon="-0.84865">
        <ele>5.1999998092651</ele>
        <time>2015-09-21T09:43:13.000Z</time>
      </trkpt>
      <trkpt lat="46.35618" lon="-0.84857">
        <ele>5</ele>
        <time>2015-09-21T09:43:21.000Z</time>
      </trkpt>
      <trkpt lat="46.35628" lon="-0.84852">
        <ele>4.8000001907349</ele>
        <time>2015-09-21T09:43:28.000Z</time>
      </trkpt>
      <trkpt lat="46.35635" lon="-0.84848">
        <ele>4.5999999046326</ele>
        <time>2015-09-21T09:43:34.000Z</time>
      </trkpt>
      <trkpt lat="46.35645" lon="-0.8484">
        <ele>4.4000000953674</ele>
        <time>2015-09-21T09:43:43.000Z</time>
      </trkpt>
      <trkpt lat="46.35648" lon="-0.84837">
        <ele>4.4000000953674</ele>
        <time>2015-09-21T09:43:46.000Z</time>
      </trkpt>
      <trkpt lat="46.35652" lon="-0.84841">
        <ele>4.4000000953674</ele>
        <time>2015-09-21T09:43:51.000Z</time>
      </trkpt>
      <trkpt lat="46.35656" lon="-0.84847">
        <ele>4.4000000953674</ele>
        <time>2015-09-21T09:43:58.000Z</time>
      </trkpt>
      <trkpt lat="46.35657" lon="-0.84853">
        <ele>4.4000000953674</ele>
        <time>2015-09-21T09:44:04.000Z</time>
      </trkpt>
      <trkpt lat="46.35657" lon="-0.84855">
        <ele>4.4000000953674</ele>
        <time>2015-09-21T09:44:06.000Z</time>
      </trkpt>
      <trkpt lat="46.35659" lon="-0.84859">
        <ele>4.4000000953674</ele>
        <time>2015-09-21T09:44:12.000Z</time>
      </trkpt>
      <trkpt lat="46.3566" lon="-0.84857">
        <ele>4.4000000953674</ele>
        <time>2015-09-21T09:44:16.000Z</time>
      </trkpt>
      <trkpt lat="46.35664" lon="-0.84856">
        <ele>4.1999998092651</ele>
        <time>2015-09-21T09:45:31.000Z</time>
      </trkpt>
      <trkpt lat="46.35663" lon="-0.84856">
        <ele>4.1999998092651</ele>
        <time>2015-09-21T09:45:58.000Z</time>
      </trkpt>
      <trkpt lat="46.35661" lon="-0.84859">
        <ele>4.4000000953674</ele>
        <time>2015-09-21T09:46:24.000Z</time>
      </trkpt>
      <trkpt lat="46.35661" lon="-0.84858">
        <ele>4.4000000953674</ele>
        <time>2015-09-21T09:48:19.000Z</time>
      </trkpt>
      <trkpt lat="46.35661" lon="-0.84858">
        <ele>4.4000000953674</ele>
        <time>2015-09-21T09:50:28.000Z</time>
      </trkpt>
      <trkpt lat="46.35664" lon="-0.84857">
        <ele>4.1999998092651</ele>
        <time>2015-09-21T09:54:18.000Z</time>
      </trkpt>
      <trkpt lat="46.35666" lon="-0.84855">
        <ele>4.1999998092651</ele>
        <time>2015-09-21T09:54:50.000Z</time>
      </trkpt>
      <trkpt lat="46.35669" lon="-0.84856">
        <ele>4</ele>
        <time>2015-09-21T09:55:11.000Z</time>
      </trkpt>
      <trkpt lat="46.35672" lon="-0.84861">
        <ele>4</ele>
        <time>2015-09-21T09:55:18.000Z</time>
      </trkpt>
      <trkpt lat="46.35674" lon="-0.84864">
        <ele>4</ele>
        <time>2015-09-21T09:55:23.000Z</time>
      </trkpt>
      <trkpt lat="46.35677" lon="-0.84867">
        <ele>4</ele>
        <time>2015-09-21T09:55:28.000Z</time>
      </trkpt>
      <trkpt lat="46.35678" lon="-0.84869">
        <ele>4</ele>
        <time>2015-09-21T09:55:32.000Z</time>
      </trkpt>
      <trkpt lat="46.35683" lon="-0.84874">
        <ele>4</ele>
        <time>2015-09-21T09:55:37.000Z</time>
      </trkpt>
      <trkpt lat="46.35685" lon="-0.84876">
        <ele>4</ele>
        <time>2015-09-21T09:55:39.000Z</time>
      </trkpt>
      <trkpt lat="46.3569" lon="-0.84885">
        <ele>4</ele>
        <time>2015-09-21T09:55:46.000Z</time>
      </trkpt>
      <trkpt lat="46.35697" lon="-0.84897">
        <ele>3.7999999523163</ele>
        <time>2015-09-21T09:55:56.000Z</time>
      </trkpt>
      <trkpt lat="46.35703" lon="-0.84906">
        <ele>3.5999999046326</ele>
        <time>2015-09-21T09:56:04.000Z</time>
      </trkpt>
      <trkpt lat="46.35705" lon="-0.8491">
        <ele>3.5999999046326</ele>
        <time>2015-09-21T09:56:08.000Z</time>
      </trkpt>
      <trkpt lat="46.35709" lon="-0.84916">
        <ele>3.5999999046326</ele>
        <time>2015-09-21T09:56:14.000Z</time>
      </trkpt>
      <trkpt lat="46.35711" lon="-0.84918">
        <ele>3.5999999046326</ele>
        <time>2015-09-21T09:56:16.000Z</time>
      </trkpt>
      <trkpt lat="46.35713" lon="-0.84921">
        <ele>3.5999999046326</ele>
        <time>2015-09-21T09:56:19.000Z</time>
      </trkpt>
      <trkpt lat="46.35714" lon="-0.84922">
        <ele>3.5999999046326</ele>
        <time>2015-09-21T09:56:21.000Z</time>
      </trkpt>
      <trkpt lat="46.35716" lon="-0.84923">
        <ele>3.5999999046326</ele>
        <time>2015-09-21T09:56:27.000Z</time>
      </trkpt>
      <trkpt lat="46.35719" lon="-0.84927">
        <ele>3.5999999046326</ele>
        <time>2015-09-21T09:56:39.000Z</time>
      </trkpt>
      <trkpt lat="46.35722" lon="-0.84933">
        <ele>3.5999999046326</ele>
        <time>2015-09-21T09:56:46.000Z</time>
      </trkpt>
      <trkpt lat="46.35723" lon="-0.84935">
        <ele>3.5999999046326</ele>
        <time>2015-09-21T09:56:51.000Z</time>
      </trkpt>
      <trkpt lat="46.35723" lon="-0.84939">
        <ele>3.5999999046326</ele>
        <time>2015-09-21T09:56:55.000Z</time>
      </trkpt>
      <trkpt lat="46.35727" lon="-0.84945">
        <ele>3.7999999523163</ele>
        <time>2015-09-21T09:57:01.000Z</time>
      </trkpt>
      <trkpt lat="46.35734" lon="-0.84956">
        <ele>3.7999999523163</ele>
        <time>2015-09-21T09:57:10.000Z</time>
      </trkpt>
      <trkpt lat="46.3574" lon="-0.84965">
        <ele>3.7999999523163</ele>
        <time>2015-09-21T09:57:17.000Z</time>
      </trkpt>
      <trkpt lat="46.35747" lon="-0.84975">
        <ele>4</ele>
        <time>2015-09-21T09:57:24.000Z</time>
      </trkpt>
      <trkpt lat="46.35755" lon="-0.84987">
        <ele>4</ele>
        <time>2015-09-21T09:57:33.000Z</time>
      </trkpt>
      <trkpt lat="46.3576" lon="-0.84992">
        <ele>4</ele>
        <time>2015-09-21T09:57:38.000Z</time>
      </trkpt>
      <trkpt lat="46.35763" lon="-0.84997">
        <ele>4</ele>
        <time>2015-09-21T09:57:42.000Z</time>
      </trkpt>
      <trkpt lat="46.35773" lon="-0.85013">
        <ele>4</ele>
        <time>2015-09-21T09:57:53.000Z</time>
      </trkpt>
      <trkpt lat="46.3578" lon="-0.85024">
        <ele>4.4000000953674</ele>
        <time>2015-09-21T09:58:02.000Z</time>
      </trkpt>
      <trkpt lat="46.35789" lon="-0.85038">
        <ele>5</ele>
        <time>2015-09-21T09:58:13.000Z</time>
      </trkpt>
      <trkpt lat="46.35797" lon="-0.8505">
        <ele>5.4000000953674</ele>
        <time>2015-09-21T09:58:22.000Z</time>
      </trkpt>
      <trkpt lat="46.35804" lon="-0.85062">
        <ele>5.8000001907349</ele>
        <time>2015-09-21T09:58:31.000Z</time>
      </trkpt>
      <trkpt lat="46.35813" lon="-0.85075">
        <ele>6</ele>
        <time>2015-09-21T09:58:41.000Z</time>
      </trkpt>
      <trkpt lat="46.3582" lon="-0.85085">
        <ele>5.8000001907349</ele>
        <time>2015-09-21T09:58:49.000Z</time>
      </trkpt>
      <trkpt lat="46.35827" lon="-0.85099">
        <ele>5.5999999046326</ele>
        <time>2015-09-21T09:58:59.000Z</time>
      </trkpt>
      <trkpt lat="46.35834" lon="-0.8511">
        <ele>5.5999999046326</ele>
        <time>2015-09-21T09:59:08.000Z</time>
      </trkpt>
      <trkpt lat="46.35839" lon="-0.85121">
        <ele>5.4000000953674</ele>
        <time>2015-09-21T09:59:15.000Z</time>
      </trkpt>
      <trkpt lat="46.35844" lon="-0.85131">
        <ele>5.1999998092651</ele>
        <time>2015-09-21T09:59:22.000Z</time>
      </trkpt>
      <trkpt lat="46.35851" lon="-0.85144">
        <ele>5.1999998092651</ele>
        <time>2015-09-21T09:59:31.000Z</time>
      </trkpt>
      <trkpt lat="46.35857" lon="-0.85155">
        <ele>5</ele>
        <time>2015-09-21T09:59:38.000Z</time>
      </trkpt>
      <trkpt lat="46.35862" lon="-0.85165">
        <ele>4.8000001907349</ele>
        <time>2015-09-21T09:59:45.000Z</time>
      </trkpt>
      <trkpt lat="46.35868" lon="-0.85175">
        <ele>4.8000001907349</ele>
        <time>2015-09-21T09:59:52.000Z</time>
      </trkpt>
      <trkpt lat="46.35876" lon="-0.85186">
        <ele>4.8000001907349</ele>
        <time>2015-09-21T10:00:00.000Z</time>
      </trkpt>
      <trkpt lat="46.35881" lon="-0.85195">
        <ele>4.8000001907349</ele>
        <time>2015-09-21T10:00:07.000Z</time>
      </trkpt>
      <trkpt lat="46.35885" lon="-0.85202">
        <ele>5</ele>
        <time>2015-09-21T10:00:12.000Z</time>
      </trkpt>
      <trkpt lat="46.35892" lon="-0.85214">
        <ele>5</ele>
        <time>2015-09-21T10:00:20.000Z</time>
      </trkpt>
      <trkpt lat="46.35899" lon="-0.85226">
        <ele>5</ele>
        <time>2015-09-21T10:00:28.000Z</time>
      </trkpt>
      <trkpt lat="46.35907" lon="-0.85241">
        <ele>5.1999998092651</ele>
        <time>2015-09-21T10:00:38.000Z</time>
      </trkpt>
      <trkpt lat="46.35912" lon="-0.85253">
        <ele>5.4000000953674</ele>
        <time>2015-09-21T10:00:45.000Z</time>
      </trkpt>
      <trkpt lat="46.3592" lon="-0.8527">
        <ele>5.5999999046326</ele>
        <time>2015-09-21T10:00:56.000Z</time>
      </trkpt>
      <trkpt lat="46.35922" lon="-0.85282">
        <ele>5.8000001907349</ele>
        <time>2015-09-21T10:01:03.000Z</time>
      </trkpt>
      <trkpt lat="46.35923" lon="-0.85284">
        <ele>5.8000001907349</ele>
        <time>2015-09-21T10:01:05.000Z</time>
      </trkpt>
      <trkpt lat="46.35922" lon="-0.85297">
        <ele>5.8000001907349</ele>
        <time>2015-09-21T10:01:14.000Z</time>
      </trkpt>
      <trkpt lat="46.35922" lon="-0.85301">
        <ele>5.8000001907349</ele>
        <time>2015-09-21T10:01:16.000Z</time>
      </trkpt>
      <trkpt lat="46.35922" lon="-0.85313">
        <ele>5.8000001907349</ele>
        <time>2015-09-21T10:01:22.000Z</time>
      </trkpt>
      <trkpt lat="46.35922" lon="-0.85331">
        <ele>5.8000001907349</ele>
        <time>2015-09-21T10:01:31.000Z</time>
      </trkpt>
      <trkpt lat="46.35922" lon="-0.85352">
        <ele>5.8000001907349</ele>
        <time>2015-09-21T10:01:42.000Z</time>
      </trkpt>
      <trkpt lat="46.35922" lon="-0.85372">
        <ele>5.8000001907349</ele>
        <time>2015-09-21T10:01:52.000Z</time>
      </trkpt>
      <trkpt lat="46.35922" lon="-0.85387">
        <ele>6</ele>
        <time>2015-09-21T10:02:00.000Z</time>
      </trkpt>
      <trkpt lat="46.35923" lon="-0.85408">
        <ele>6</ele>
        <time>2015-09-21T10:02:11.000Z</time>
      </trkpt>
      <trkpt lat="46.35922" lon="-0.85426">
        <ele>6</ele>
        <time>2015-09-21T10:02:20.000Z</time>
      </trkpt>
      <trkpt lat="46.35922" lon="-0.85445">
        <ele>6</ele>
        <time>2015-09-21T10:02:30.000Z</time>
      </trkpt>
      <trkpt lat="46.35925" lon="-0.85465">
        <ele>6.1999998092651</ele>
        <time>2015-09-21T10:02:41.000Z</time>
      </trkpt>
      <trkpt lat="46.3593" lon="-0.85481">
        <ele>6.4000000953674</ele>
        <time>2015-09-21T10:02:50.000Z</time>
      </trkpt>
      <trkpt lat="46.35936" lon="-0.85497">
        <ele>6.4000000953674</ele>
        <time>2015-09-21T10:03:00.000Z</time>
      </trkpt>
      <trkpt lat="46.35944" lon="-0.85516">
        <ele>6.4000000953674</ele>
        <time>2015-09-21T10:03:11.000Z</time>
      </trkpt>
      <trkpt lat="46.3595" lon="-0.85529">
        <ele>6.4000000953674</ele>
        <time>2015-09-21T10:03:20.000Z</time>
      </trkpt>
      <trkpt lat="46.35955" lon="-0.85538">
        <ele>6.1999998092651</ele>
        <time>2015-09-21T10:03:27.000Z</time>
      </trkpt>
      <trkpt lat="46.35962" lon="-0.85549">
        <ele>6</ele>
        <time>2015-09-21T10:03:35.000Z</time>
      </trkpt>
      <trkpt lat="46.35973" lon="-0.85562">
        <ele>6</ele>
        <time>2015-09-21T10:03:46.000Z</time>
      </trkpt>
      <trkpt lat="46.35982" lon="-0.85573">
        <ele>6.1999998092651</ele>
        <time>2015-09-21T10:03:55.000Z</time>
      </trkpt>
      <trkpt lat="46.35996" lon="-0.85591">
        <ele>6.8000001907349</ele>
        <time>2015-09-21T10:04:10.000Z</time>
      </trkpt>
      <trkpt lat="46.36001" lon="-0.856">
        <ele>7</ele>
        <time>2015-09-21T10:04:16.000Z</time>
      </trkpt>
      <trkpt lat="46.3601" lon="-0.85612">
        <ele>7.4000000953674</ele>
        <time>2015-09-21T10:04:26.000Z</time>
      </trkpt>
      <trkpt lat="46.36021" lon="-0.85632">
        <ele>7</ele>
        <time>2015-09-21T10:04:39.000Z</time>
      </trkpt>
      <trkpt lat="46.3603" lon="-0.85649">
        <ele>7</ele>
        <time>2015-09-21T10:04:50.000Z</time>
      </trkpt>
      <trkpt lat="46.36036" lon="-0.85664">
        <ele>7</ele>
        <time>2015-09-21T10:04:59.000Z</time>
      </trkpt>
      <trkpt lat="46.36043" lon="-0.85683">
        <ele>7.1999998092651</ele>
        <time>2015-09-21T10:05:10.000Z</time>
      </trkpt>
      <trkpt lat="46.36047" lon="-0.85695">
        <ele>7.4000000953674</ele>
        <time>2015-09-21T10:05:17.000Z</time>
      </trkpt>
      <trkpt lat="46.36053" lon="-0.85711">
        <ele>7.8000001907349</ele>
        <time>2015-09-21T10:05:27.000Z</time>
      </trkpt>
      <trkpt lat="46.36058" lon="-0.85725">
        <ele>7.8000001907349</ele>
        <time>2015-09-21T10:05:36.000Z</time>
      </trkpt>
      <trkpt lat="46.36063" lon="-0.85739">
        <ele>7.8000001907349</ele>
        <time>2015-09-21T10:05:45.000Z</time>
      </trkpt>
      <trkpt lat="46.3607" lon="-0.85754">
        <ele>7.5999999046326</ele>
        <time>2015-09-21T10:05:55.000Z</time>
      </trkpt>
      <trkpt lat="46.36076" lon="-0.85766">
        <ele>7.4000000953674</ele>
        <time>2015-09-21T10:06:03.000Z</time>
      </trkpt>
      <trkpt lat="46.36086" lon="-0.85781">
        <ele>7.1999998092651</ele>
        <time>2015-09-21T10:06:14.000Z</time>
      </trkpt>
      <trkpt lat="46.36097" lon="-0.85796">
        <ele>7.4000000953674</ele>
        <time>2015-09-21T10:06:25.000Z</time>
      </trkpt>
      <trkpt lat="46.36107" lon="-0.85808">
        <ele>7.5999999046326</ele>
        <time>2015-09-21T10:06:35.000Z</time>
      </trkpt>
      <trkpt lat="46.36119" lon="-0.85819">
        <ele>7.8000001907349</ele>
        <time>2015-09-21T10:06:46.000Z</time>
      </trkpt>
      <trkpt lat="46.3613" lon="-0.85828">
        <ele>8</ele>
        <time>2015-09-21T10:06:56.000Z</time>
      </trkpt>
      <trkpt lat="46.36144" lon="-0.85839">
        <ele>8</ele>
        <time>2015-09-21T10:07:09.000Z</time>
      </trkpt>
      <trkpt lat="46.36148" lon="-0.85843">
        <ele>8</ele>
        <time>2015-09-21T10:07:13.000Z</time>
      </trkpt>
      <trkpt lat="46.36153" lon="-0.85846">
        <ele>8</ele>
        <time>2015-09-21T10:07:19.000Z</time>
      </trkpt>
      <trkpt lat="46.36162" lon="-0.85839">
        <ele>8.1999998092651</ele>
        <time>2015-09-21T10:07:28.000Z</time>
      </trkpt>
      <trkpt lat="46.36171" lon="-0.85827">
        <ele>8.1999998092651</ele>
        <time>2015-09-21T10:07:39.000Z</time>
      </trkpt>
      <trkpt lat="46.36181" lon="-0.85816">
        <ele>8.3999996185303</ele>
        <time>2015-09-21T10:07:51.000Z</time>
      </trkpt>
      <trkpt lat="46.36191" lon="-0.85809">
        <ele>8.6000003814697</ele>
        <time>2015-09-21T10:08:01.000Z</time>
      </trkpt>
      <trkpt lat="46.36199" lon="-0.85798">
        <ele>8.6000003814697</ele>
        <time>2015-09-21T10:08:11.000Z</time>
      </trkpt>
      <trkpt lat="46.36206" lon="-0.85792">
        <ele>8.6000003814697</ele>
        <time>2015-09-21T10:08:18.000Z</time>
      </trkpt>
      <trkpt lat="46.36211" lon="-0.85795">
        <ele>8.6000003814697</ele>
        <time>2015-09-21T10:08:24.000Z</time>
      </trkpt>
      <trkpt lat="46.36211" lon="-0.85797">
        <ele>8.6000003814697</ele>
        <time>2015-09-21T10:08:25.000Z</time>
      </trkpt>
      <trkpt lat="46.36216" lon="-0.85806">
        <ele>8.8000001907349</ele>
        <time>2015-09-21T10:08:32.000Z</time>
      </trkpt>
      <trkpt lat="46.3622" lon="-0.85813">
        <ele>8.8000001907349</ele>
        <time>2015-09-21T10:08:39.000Z</time>
      </trkpt>
      <trkpt lat="46.36221" lon="-0.85815">
        <ele>8.8000001907349</ele>
        <time>2015-09-21T10:08:45.000Z</time>
      </trkpt>
    </trkseg>
  </trk>
</gpx>